<?xml version="1.0" encoding="UTF-8" standalone="no" ?>
<gpx xmlns="http://www.topografix.com/GPX/1/1" xmlns:xsi="http://www.w3.org/2001/XMLSchema-instance" xsi:schemaLocation="http://www.topografix.com/GPX/1/1 http://www.topografix.com/GPX/1/1/gpx.xsd" version="1.1" creator="VisuGPX - https://www.visugpx.com">
  <metadata>
    <name>Mont de Gez par le sud</name>
    <desc><![CDATA[Autour d\'Argeles Gazost (65)]]></desc>
  </metadata>
  <trk>
    <name><![CDATA[mont de gez par le sud]]></name>
    <trkseg>
      <trkpt lat="43.00632" lon="-0.09534">
        <ele>381.78</ele>
        <time>2014-04-12T12:55:27Z</time>
      </trkpt>
      <trkpt lat="43.00607" lon="-0.09549">
        <ele>385.15</ele>
        <time>2014-04-12T12:55:40Z</time>
      </trkpt>
      <trkpt lat="43.00607" lon="-0.0955">
        <ele>380.34</ele>
        <time>2014-04-12T12:55:41Z</time>
      </trkpt>
      <trkpt lat="43.00606" lon="-0.09551">
        <ele>385.15</ele>
        <time>2014-04-12T12:55:43Z</time>
      </trkpt>
      <trkpt lat="43.00605" lon="-0.09551">
        <ele>384.18</ele>
        <time>2014-04-12T12:55:44Z</time>
      </trkpt>
      <trkpt lat="43.00605" lon="-0.0955">
        <ele>383.22</ele>
        <time>2014-04-12T12:55:46Z</time>
      </trkpt>
      <trkpt lat="43.00606" lon="-0.09547">
        <ele>386.11</ele>
        <time>2014-04-12T12:55:55Z</time>
      </trkpt>
      <trkpt lat="43.00608" lon="-0.09547">
        <ele>391.39</ele>
        <time>2014-04-12T12:55:57Z</time>
      </trkpt>
      <trkpt lat="43.0061" lon="-0.09548">
        <ele>396.2</ele>
        <time>2014-04-12T12:55:59Z</time>
      </trkpt>
      <trkpt lat="43.0061" lon="-0.09549">
        <ele>399.57</ele>
        <time>2014-04-12T12:56:01Z</time>
      </trkpt>
      <trkpt lat="43.0061" lon="-0.0955">
        <ele>403.41</ele>
        <time>2014-04-12T12:56:03Z</time>
      </trkpt>
      <trkpt lat="43.0061" lon="-0.0955">
        <ele>407.74</ele>
        <time>2014-04-12T12:56:06Z</time>
      </trkpt>
      <trkpt lat="43.0061" lon="-0.0955">
        <ele>408.22</ele>
        <time>2014-04-12T12:56:07Z</time>
      </trkpt>
      <trkpt lat="43.0061" lon="-0.09551">
        <ele>411.1</ele>
        <time>2014-04-12T12:56:09Z</time>
      </trkpt>
      <trkpt lat="43.0061" lon="-0.09551">
        <ele>414.47</ele>
        <time>2014-04-12T12:56:13Z</time>
      </trkpt>
      <trkpt lat="43.0061" lon="-0.09553">
        <ele>417.83</ele>
        <time>2014-04-12T12:56:17Z</time>
      </trkpt>
      <trkpt lat="43.0061" lon="-0.09555">
        <ele>419.75</ele>
        <time>2014-04-12T12:56:20Z</time>
      </trkpt>
      <trkpt lat="43.0061" lon="-0.09556">
        <ele>421.19</ele>
        <time>2014-04-12T12:56:23Z</time>
      </trkpt>
      <trkpt lat="43.00609" lon="-0.09556">
        <ele>422.64</ele>
        <time>2014-04-12T12:56:26Z</time>
      </trkpt>
      <trkpt lat="43.00609" lon="-0.09556">
        <ele>424.56</ele>
        <time>2014-04-12T12:56:30Z</time>
      </trkpt>
      <trkpt lat="43.00609" lon="-0.09556">
        <ele>426</ele>
        <time>2014-04-12T12:56:34Z</time>
      </trkpt>
      <trkpt lat="43.00609" lon="-0.09554">
        <ele>429.37</ele>
        <time>2014-04-12T12:56:52Z</time>
      </trkpt>
      <trkpt lat="43.00609" lon="-0.09557">
        <ele>430.81</ele>
        <time>2014-04-12T12:57:29Z</time>
      </trkpt>
      <trkpt lat="43.00609" lon="-0.09557">
        <ele>430.81</ele>
        <time>2014-04-12T12:58:08Z</time>
      </trkpt>
      <trkpt lat="43.00609" lon="-0.09558">
        <ele>430.81</ele>
        <time>2014-04-12T12:58:47Z</time>
      </trkpt>
      <trkpt lat="43.00608" lon="-0.09557">
        <ele>430.33</ele>
        <time>2014-04-12T12:59:23Z</time>
      </trkpt>
      <trkpt lat="43.00608" lon="-0.09557">
        <ele>430.81</ele>
        <time>2014-04-12T13:00:02Z</time>
      </trkpt>
      <trkpt lat="43.00608" lon="-0.09558">
        <ele>430.33</ele>
        <time>2014-04-12T13:00:32Z</time>
      </trkpt>
      <trkpt lat="43.0061" lon="-0.09557">
        <ele>431.29</ele>
        <time>2014-04-12T13:01:11Z</time>
      </trkpt>
      <trkpt lat="43.00611" lon="-0.09558">
        <ele>431.29</ele>
        <time>2014-04-12T13:01:27Z</time>
      </trkpt>
      <trkpt lat="43.00619" lon="-0.09571">
        <ele>431.77</ele>
        <time>2014-04-12T13:01:37Z</time>
      </trkpt>
      <trkpt lat="43.00617" lon="-0.09575">
        <ele>431.77</ele>
        <time>2014-04-12T13:01:39Z</time>
      </trkpt>
      <trkpt lat="43.00612" lon="-0.09584">
        <ele>432.73</ele>
        <time>2014-04-12T13:01:43Z</time>
      </trkpt>
      <trkpt lat="43.00613" lon="-0.09611">
        <ele>432.73</ele>
        <time>2014-04-12T13:01:54Z</time>
      </trkpt>
      <trkpt lat="43.00642" lon="-0.09625">
        <ele>432.25</ele>
        <time>2014-04-12T13:02:05Z</time>
      </trkpt>
      <trkpt lat="43.00671" lon="-0.09637">
        <ele>431.29</ele>
        <time>2014-04-12T13:02:14Z</time>
      </trkpt>
      <trkpt lat="43.00692" lon="-0.09646">
        <ele>431.77</ele>
        <time>2014-04-12T13:02:20Z</time>
      </trkpt>
      <trkpt lat="43.007" lon="-0.0966">
        <ele>431.77</ele>
        <time>2014-04-12T13:02:24Z</time>
      </trkpt>
      <trkpt lat="43.00698" lon="-0.09707">
        <ele>433.21</ele>
        <time>2014-04-12T13:02:36Z</time>
      </trkpt>
      <trkpt lat="43.00696" lon="-0.0975">
        <ele>434.17</ele>
        <time>2014-04-12T13:02:47Z</time>
      </trkpt>
      <trkpt lat="43.00713" lon="-0.09764">
        <ele>434.17</ele>
        <time>2014-04-12T13:02:54Z</time>
      </trkpt>
      <trkpt lat="43.00753" lon="-0.0978">
        <ele>433.69</ele>
        <time>2014-04-12T13:03:06Z</time>
      </trkpt>
      <trkpt lat="43.00786" lon="-0.09791">
        <ele>432.25</ele>
        <time>2014-04-12T13:03:16Z</time>
      </trkpt>
      <trkpt lat="43.00805" lon="-0.09797">
        <ele>431.77</ele>
        <time>2014-04-12T13:03:21Z</time>
      </trkpt>
      <trkpt lat="43.00821" lon="-0.09803">
        <ele>431.77</ele>
        <time>2014-04-12T13:03:25Z</time>
      </trkpt>
      <trkpt lat="43.00834" lon="-0.09808">
        <ele>431.29</ele>
        <time>2014-04-12T13:03:28Z</time>
      </trkpt>
      <trkpt lat="43.0086" lon="-0.09817">
        <ele>431.29</ele>
        <time>2014-04-12T13:03:35Z</time>
      </trkpt>
      <trkpt lat="43.00867" lon="-0.09819">
        <ele>431.29</ele>
        <time>2014-04-12T13:03:37Z</time>
      </trkpt>
      <trkpt lat="43.00872" lon="-0.09824">
        <ele>430.81</ele>
        <time>2014-04-12T13:03:41Z</time>
      </trkpt>
      <trkpt lat="43.00877" lon="-0.09842">
        <ele>431.77</ele>
        <time>2014-04-12T13:03:48Z</time>
      </trkpt>
      <trkpt lat="43.00884" lon="-0.09849">
        <ele>432.73</ele>
        <time>2014-04-12T13:03:53Z</time>
      </trkpt>
      <trkpt lat="43.00889" lon="-0.09852">
        <ele>433.21</ele>
        <time>2014-04-12T13:03:56Z</time>
      </trkpt>
      <trkpt lat="43.00882" lon="-0.09855">
        <ele>435.13</ele>
        <time>2014-04-12T13:04:04Z</time>
      </trkpt>
      <trkpt lat="43.00875" lon="-0.09855">
        <ele>435.61</ele>
        <time>2014-04-12T13:04:09Z</time>
      </trkpt>
      <trkpt lat="43.00871" lon="-0.09858">
        <ele>436.58</ele>
        <time>2014-04-12T13:04:12Z</time>
      </trkpt>
      <trkpt lat="43.00877" lon="-0.09862">
        <ele>438.5</ele>
        <time>2014-04-12T13:04:19Z</time>
      </trkpt>
      <trkpt lat="43.00879" lon="-0.09866">
        <ele>438.5</ele>
        <time>2014-04-12T13:04:23Z</time>
      </trkpt>
      <trkpt lat="43.00875" lon="-0.09867">
        <ele>440.42</ele>
        <time>2014-04-12T13:04:32Z</time>
      </trkpt>
      <trkpt lat="43.0088" lon="-0.09866">
        <ele>442.34</ele>
        <time>2014-04-12T13:04:36Z</time>
      </trkpt>
      <trkpt lat="43.00881" lon="-0.0987">
        <ele>441.86</ele>
        <time>2014-04-12T13:04:39Z</time>
      </trkpt>
      <trkpt lat="43.00871" lon="-0.09873">
        <ele>444.75</ele>
        <time>2014-04-12T13:04:46Z</time>
      </trkpt>
      <trkpt lat="43.00856" lon="-0.09878">
        <ele>445.23</ele>
        <time>2014-04-12T13:04:57Z</time>
      </trkpt>
      <trkpt lat="43.00847" lon="-0.09881">
        <ele>445.71</ele>
        <time>2014-04-12T13:05:03Z</time>
      </trkpt>
      <trkpt lat="43.00825" lon="-0.0989">
        <ele>447.63</ele>
        <time>2014-04-12T13:05:18Z</time>
      </trkpt>
      <trkpt lat="43.00821" lon="-0.09892">
        <ele>447.63</ele>
        <time>2014-04-12T13:05:21Z</time>
      </trkpt>
      <trkpt lat="43.00815" lon="-0.09901">
        <ele>447.63</ele>
        <time>2014-04-12T13:05:33Z</time>
      </trkpt>
      <trkpt lat="43.00814" lon="-0.09901">
        <ele>448.11</ele>
        <time>2014-04-12T13:05:55Z</time>
      </trkpt>
      <trkpt lat="43.00814" lon="-0.09902">
        <ele>448.59</ele>
        <time>2014-04-12T13:05:56Z</time>
      </trkpt>
      <trkpt lat="43.00805" lon="-0.09918">
        <ele>449.07</ele>
        <time>2014-04-12T13:06:06Z</time>
      </trkpt>
      <trkpt lat="43.00798" lon="-0.09934">
        <ele>449.55</ele>
        <time>2014-04-12T13:06:17Z</time>
      </trkpt>
      <trkpt lat="43.00797" lon="-0.09934">
        <ele>449.55</ele>
        <time>2014-04-12T13:06:21Z</time>
      </trkpt>
      <trkpt lat="43.00799" lon="-0.09956">
        <ele>450.52</ele>
        <time>2014-04-12T13:06:29Z</time>
      </trkpt>
      <trkpt lat="43.00802" lon="-0.09963">
        <ele>451</ele>
        <time>2014-04-12T13:06:38Z</time>
      </trkpt>
      <trkpt lat="43.00801" lon="-0.09966">
        <ele>450.52</ele>
        <time>2014-04-12T13:07:04Z</time>
      </trkpt>
      <trkpt lat="43.00801" lon="-0.09968">
        <ele>451</ele>
        <time>2014-04-12T13:07:32Z</time>
      </trkpt>
      <trkpt lat="43.00815" lon="-0.09968">
        <ele>451.48</ele>
        <time>2014-04-12T13:07:41Z</time>
      </trkpt>
      <trkpt lat="43.00834" lon="-0.09974">
        <ele>451.48</ele>
        <time>2014-04-12T13:07:50Z</time>
      </trkpt>
      <trkpt lat="43.00841" lon="-0.09986">
        <ele>452.92</ele>
        <time>2014-04-12T13:07:54Z</time>
      </trkpt>
      <trkpt lat="43.00852" lon="-0.10014">
        <ele>453.4</ele>
        <time>2014-04-12T13:08:04Z</time>
      </trkpt>
      <trkpt lat="43.00854" lon="-0.10016">
        <ele>453.4</ele>
        <time>2014-04-12T13:08:05Z</time>
      </trkpt>
      <trkpt lat="43.00862" lon="-0.10031">
        <ele>453.88</ele>
        <time>2014-04-12T13:08:11Z</time>
      </trkpt>
      <trkpt lat="43.00845" lon="-0.10058">
        <ele>453.88</ele>
        <time>2014-04-12T13:08:22Z</time>
      </trkpt>
      <trkpt lat="43.00843" lon="-0.1006">
        <ele>453.88</ele>
        <time>2014-04-12T13:08:23Z</time>
      </trkpt>
      <trkpt lat="43.008" lon="-0.10066">
        <ele>453.88</ele>
        <time>2014-04-12T13:08:37Z</time>
      </trkpt>
      <trkpt lat="43.00751" lon="-0.10071">
        <ele>454.84</ele>
        <time>2014-04-12T13:08:54Z</time>
      </trkpt>
      <trkpt lat="43.00719" lon="-0.10079">
        <ele>455.32</ele>
        <time>2014-04-12T13:09:05Z</time>
      </trkpt>
      <trkpt lat="43.00693" lon="-0.101">
        <ele>456.76</ele>
        <time>2014-04-12T13:09:17Z</time>
      </trkpt>
      <trkpt lat="43.00691" lon="-0.10101">
        <ele>456.76</ele>
        <time>2014-04-12T13:09:18Z</time>
      </trkpt>
      <trkpt lat="43.00664" lon="-0.10106">
        <ele>456.76</ele>
        <time>2014-04-12T13:09:28Z</time>
      </trkpt>
      <trkpt lat="43.00635" lon="-0.10107">
        <ele>456.76</ele>
        <time>2014-04-12T13:09:39Z</time>
      </trkpt>
      <trkpt lat="43.00622" lon="-0.10118">
        <ele>457.72</ele>
        <time>2014-04-12T13:09:48Z</time>
      </trkpt>
      <trkpt lat="43.00619" lon="-0.10118">
        <ele>457.72</ele>
        <time>2014-04-12T13:09:49Z</time>
      </trkpt>
      <trkpt lat="43.00591" lon="-0.1011">
        <ele>457.72</ele>
        <time>2014-04-12T13:10:03Z</time>
      </trkpt>
      <trkpt lat="43.00588" lon="-0.10111">
        <ele>457.72</ele>
        <time>2014-04-12T13:10:04Z</time>
      </trkpt>
      <trkpt lat="43.00581" lon="-0.1012">
        <ele>458.21</ele>
        <time>2014-04-12T13:10:10Z</time>
      </trkpt>
      <trkpt lat="43.00581" lon="-0.10132">
        <ele>458.21</ele>
        <time>2014-04-12T13:10:14Z</time>
      </trkpt>
      <trkpt lat="43.0058" lon="-0.10142">
        <ele>458.21</ele>
        <time>2014-04-12T13:10:17Z</time>
      </trkpt>
      <trkpt lat="43.0058" lon="-0.10146">
        <ele>459.17</ele>
        <time>2014-04-12T13:10:20Z</time>
      </trkpt>
      <trkpt lat="43.00568" lon="-0.10157">
        <ele>460.13</ele>
        <time>2014-04-12T13:10:28Z</time>
      </trkpt>
      <trkpt lat="43.00561" lon="-0.10161">
        <ele>462.05</ele>
        <time>2014-04-12T13:10:32Z</time>
      </trkpt>
      <trkpt lat="43.00547" lon="-0.10169">
        <ele>462.53</ele>
        <time>2014-04-12T13:10:38Z</time>
      </trkpt>
      <trkpt lat="43.00545" lon="-0.10172">
        <ele>462.05</ele>
        <time>2014-04-12T13:10:40Z</time>
      </trkpt>
      <trkpt lat="43.00546" lon="-0.10172">
        <ele>462.53</ele>
        <time>2014-04-12T13:10:41Z</time>
      </trkpt>
      <trkpt lat="43.00554" lon="-0.10174">
        <ele>463.49</ele>
        <time>2014-04-12T13:10:46Z</time>
      </trkpt>
      <trkpt lat="43.00557" lon="-0.10175">
        <ele>463.97</ele>
        <time>2014-04-12T13:10:48Z</time>
      </trkpt>
      <trkpt lat="43.00562" lon="-0.10177">
        <ele>463.97</ele>
        <time>2014-04-12T13:10:52Z</time>
      </trkpt>
      <trkpt lat="43.00573" lon="-0.10178">
        <ele>465.9</ele>
        <time>2014-04-12T13:10:58Z</time>
      </trkpt>
      <trkpt lat="43.00591" lon="-0.10182">
        <ele>467.82</ele>
        <time>2014-04-12T13:11:07Z</time>
      </trkpt>
      <trkpt lat="43.00598" lon="-0.10185">
        <ele>468.78</ele>
        <time>2014-04-12T13:11:10Z</time>
      </trkpt>
      <trkpt lat="43.00599" lon="-0.10185">
        <ele>469.26</ele>
        <time>2014-04-12T13:11:11Z</time>
      </trkpt>
      <trkpt lat="43.00605" lon="-0.10187">
        <ele>470.7</ele>
        <time>2014-04-12T13:11:15Z</time>
      </trkpt>
      <trkpt lat="43.00609" lon="-0.10188">
        <ele>470.7</ele>
        <time>2014-04-12T13:11:18Z</time>
      </trkpt>
      <trkpt lat="43.00614" lon="-0.10191">
        <ele>472.14</ele>
        <time>2014-04-12T13:11:22Z</time>
      </trkpt>
      <trkpt lat="43.00631" lon="-0.10207">
        <ele>475.03</ele>
        <time>2014-04-12T13:11:35Z</time>
      </trkpt>
      <trkpt lat="43.00639" lon="-0.10212">
        <ele>477.43</ele>
        <time>2014-04-12T13:11:41Z</time>
      </trkpt>
      <trkpt lat="43.00644" lon="-0.10232">
        <ele>479.35</ele>
        <time>2014-04-12T13:11:51Z</time>
      </trkpt>
      <trkpt lat="43.00643" lon="-0.10238">
        <ele>479.35</ele>
        <time>2014-04-12T13:11:54Z</time>
      </trkpt>
      <trkpt lat="43.00638" lon="-0.10249">
        <ele>480.32</ele>
        <time>2014-04-12T13:11:59Z</time>
      </trkpt>
      <trkpt lat="43.00633" lon="-0.10265">
        <ele>481.28</ele>
        <time>2014-04-12T13:12:06Z</time>
      </trkpt>
      <trkpt lat="43.00621" lon="-0.10298">
        <ele>483.2</ele>
        <time>2014-04-12T13:12:21Z</time>
      </trkpt>
      <trkpt lat="43.00609" lon="-0.10321">
        <ele>486.08</ele>
        <time>2014-04-12T13:12:33Z</time>
      </trkpt>
      <trkpt lat="43.00605" lon="-0.10331">
        <ele>487.05</ele>
        <time>2014-04-12T13:12:38Z</time>
      </trkpt>
      <trkpt lat="43.0061" lon="-0.10343">
        <ele>488.49</ele>
        <time>2014-04-12T13:12:44Z</time>
      </trkpt>
      <trkpt lat="43.00622" lon="-0.10353">
        <ele>490.41</ele>
        <time>2014-04-12T13:12:55Z</time>
      </trkpt>
      <trkpt lat="43.00629" lon="-0.10353">
        <ele>490.89</ele>
        <time>2014-04-12T13:13:00Z</time>
      </trkpt>
      <trkpt lat="43.00646" lon="-0.10351">
        <ele>493.29</ele>
        <time>2014-04-12T13:13:11Z</time>
      </trkpt>
      <trkpt lat="43.00648" lon="-0.1035">
        <ele>493.29</ele>
        <time>2014-04-12T13:13:12Z</time>
      </trkpt>
      <trkpt lat="43.00663" lon="-0.10347">
        <ele>495.7</ele>
        <time>2014-04-12T13:13:22Z</time>
      </trkpt>
      <trkpt lat="43.00665" lon="-0.10348">
        <ele>496.66</ele>
        <time>2014-04-12T13:13:23Z</time>
      </trkpt>
      <trkpt lat="43.00666" lon="-0.10351">
        <ele>497.62</ele>
        <time>2014-04-12T13:13:26Z</time>
      </trkpt>
      <trkpt lat="43.00665" lon="-0.10353">
        <ele>498.1</ele>
        <time>2014-04-12T13:13:29Z</time>
      </trkpt>
      <trkpt lat="43.00661" lon="-0.10366">
        <ele>500.5</ele>
        <time>2014-04-12T13:13:39Z</time>
      </trkpt>
      <trkpt lat="43.00645" lon="-0.1038">
        <ele>501.95</ele>
        <time>2014-04-12T13:13:50Z</time>
      </trkpt>
      <trkpt lat="43.00634" lon="-0.10391">
        <ele>502.91</ele>
        <time>2014-04-12T13:13:58Z</time>
      </trkpt>
      <trkpt lat="43.00634" lon="-0.10393">
        <ele>503.39</ele>
        <time>2014-04-12T13:14:00Z</time>
      </trkpt>
      <trkpt lat="43.00617" lon="-0.10406">
        <ele>506.27</ele>
        <time>2014-04-12T13:14:13Z</time>
      </trkpt>
      <trkpt lat="43.00613" lon="-0.10409">
        <ele>506.75</ele>
        <time>2014-04-12T13:14:15Z</time>
      </trkpt>
      <trkpt lat="43.00603" lon="-0.10414">
        <ele>508.67</ele>
        <time>2014-04-12T13:14:21Z</time>
      </trkpt>
      <trkpt lat="43.00605" lon="-0.10417">
        <ele>509.64</ele>
        <time>2014-04-12T13:14:27Z</time>
      </trkpt>
      <trkpt lat="43.00621" lon="-0.10419">
        <ele>512.04</ele>
        <time>2014-04-12T13:14:37Z</time>
      </trkpt>
      <trkpt lat="43.0064" lon="-0.10422">
        <ele>514.92</ele>
        <time>2014-04-12T13:14:48Z</time>
      </trkpt>
      <trkpt lat="43.00648" lon="-0.10424">
        <ele>515.88</ele>
        <time>2014-04-12T13:14:53Z</time>
      </trkpt>
      <trkpt lat="43.00651" lon="-0.10425">
        <ele>516.37</ele>
        <time>2014-04-12T13:14:55Z</time>
      </trkpt>
      <trkpt lat="43.0066" lon="-0.10426">
        <ele>517.33</ele>
        <time>2014-04-12T13:15:00Z</time>
      </trkpt>
      <trkpt lat="43.00667" lon="-0.10425">
        <ele>519.25</ele>
        <time>2014-04-12T13:15:04Z</time>
      </trkpt>
      <trkpt lat="43.0067" lon="-0.10424">
        <ele>519.73</ele>
        <time>2014-04-12T13:15:07Z</time>
      </trkpt>
      <trkpt lat="43.0067" lon="-0.10426">
        <ele>520.21</ele>
        <time>2014-04-12T13:15:09Z</time>
      </trkpt>
      <trkpt lat="43.00664" lon="-0.10432">
        <ele>520.21</ele>
        <time>2014-04-12T13:15:15Z</time>
      </trkpt>
      <trkpt lat="43.0064" lon="-0.10439">
        <ele>520.69</ele>
        <time>2014-04-12T13:15:27Z</time>
      </trkpt>
      <trkpt lat="43.00614" lon="-0.10444">
        <ele>520.69</ele>
        <time>2014-04-12T13:15:39Z</time>
      </trkpt>
      <trkpt lat="43.00612" lon="-0.10446">
        <ele>521.17</ele>
        <time>2014-04-12T13:15:40Z</time>
      </trkpt>
      <trkpt lat="43.00603" lon="-0.10448">
        <ele>520.69</ele>
        <time>2014-04-12T13:15:45Z</time>
      </trkpt>
      <trkpt lat="43.006" lon="-0.10452">
        <ele>521.17</ele>
        <time>2014-04-12T13:15:49Z</time>
      </trkpt>
      <trkpt lat="43.00607" lon="-0.1045">
        <ele>523.09</ele>
        <time>2014-04-12T13:16:02Z</time>
      </trkpt>
      <trkpt lat="43.00615" lon="-0.10449">
        <ele>524.06</ele>
        <time>2014-04-12T13:16:14Z</time>
      </trkpt>
      <trkpt lat="43.00631" lon="-0.10448">
        <ele>525.02</ele>
        <time>2014-04-12T13:16:27Z</time>
      </trkpt>
      <trkpt lat="43.00643" lon="-0.10449">
        <ele>525.98</ele>
        <time>2014-04-12T13:16:35Z</time>
      </trkpt>
      <trkpt lat="43.00649" lon="-0.1045">
        <ele>526.94</ele>
        <time>2014-04-12T13:16:38Z</time>
      </trkpt>
      <trkpt lat="43.00665" lon="-0.10454">
        <ele>528.86</ele>
        <time>2014-04-12T13:16:49Z</time>
      </trkpt>
      <trkpt lat="43.00682" lon="-0.10448">
        <ele>530.79</ele>
        <time>2014-04-12T13:16:58Z</time>
      </trkpt>
      <trkpt lat="43.00704" lon="-0.10447">
        <ele>533.67</ele>
        <time>2014-04-12T13:17:12Z</time>
      </trkpt>
      <trkpt lat="43.00705" lon="-0.10447">
        <ele>533.67</ele>
        <time>2014-04-12T13:17:13Z</time>
      </trkpt>
      <trkpt lat="43.00723" lon="-0.10442">
        <ele>535.59</ele>
        <time>2014-04-12T13:17:24Z</time>
      </trkpt>
      <trkpt lat="43.00731" lon="-0.10438">
        <ele>537.51</ele>
        <time>2014-04-12T13:17:35Z</time>
      </trkpt>
      <trkpt lat="43.00731" lon="-0.10439">
        <ele>537.03</ele>
        <time>2014-04-12T13:17:40Z</time>
      </trkpt>
      <trkpt lat="43.00731" lon="-0.10439">
        <ele>537.51</ele>
        <time>2014-04-12T13:17:50Z</time>
      </trkpt>
      <trkpt lat="43.00733" lon="-0.10439">
        <ele>537.03</ele>
        <time>2014-04-12T13:18:01Z</time>
      </trkpt>
      <trkpt lat="43.00734" lon="-0.10442">
        <ele>539.44</ele>
        <time>2014-04-12T13:18:07Z</time>
      </trkpt>
      <trkpt lat="43.00731" lon="-0.10448">
        <ele>541.36</ele>
        <time>2014-04-12T13:18:12Z</time>
      </trkpt>
      <trkpt lat="43.0073" lon="-0.1045">
        <ele>542.32</ele>
        <time>2014-04-12T13:18:14Z</time>
      </trkpt>
      <trkpt lat="43.0073" lon="-0.10455">
        <ele>543.28</ele>
        <time>2014-04-12T13:18:19Z</time>
      </trkpt>
      <trkpt lat="43.00732" lon="-0.10455">
        <ele>543.76</ele>
        <time>2014-04-12T13:18:21Z</time>
      </trkpt>
      <trkpt lat="43.0076" lon="-0.10461">
        <ele>545.69</ele>
        <time>2014-04-12T13:18:38Z</time>
      </trkpt>
      <trkpt lat="43.00786" lon="-0.10465">
        <ele>548.57</ele>
        <time>2014-04-12T13:18:53Z</time>
      </trkpt>
      <trkpt lat="43.00807" lon="-0.10467">
        <ele>550.01</ele>
        <time>2014-04-12T13:19:06Z</time>
      </trkpt>
      <trkpt lat="43.00836" lon="-0.10465">
        <ele>552.9</ele>
        <time>2014-04-12T13:19:22Z</time>
      </trkpt>
      <trkpt lat="43.00847" lon="-0.10466">
        <ele>553.86</ele>
        <time>2014-04-12T13:19:29Z</time>
      </trkpt>
      <trkpt lat="43.00854" lon="-0.1047">
        <ele>554.34</ele>
        <time>2014-04-12T13:19:34Z</time>
      </trkpt>
      <trkpt lat="43.00873" lon="-0.105">
        <ele>557.7</ele>
        <time>2014-04-12T13:19:50Z</time>
      </trkpt>
      <trkpt lat="43.00884" lon="-0.10534">
        <ele>559.62</ele>
        <time>2014-04-12T13:20:05Z</time>
      </trkpt>
      <trkpt lat="43.00894" lon="-0.10568">
        <ele>562.03</ele>
        <time>2014-04-12T13:20:19Z</time>
      </trkpt>
      <trkpt lat="43.00887" lon="-0.10608">
        <ele>563.47</ele>
        <time>2014-04-12T13:20:33Z</time>
      </trkpt>
      <trkpt lat="43.0088" lon="-0.10653">
        <ele>563.47</ele>
        <time>2014-04-12T13:20:48Z</time>
      </trkpt>
      <trkpt lat="43.00887" lon="-0.10702">
        <ele>566.35</ele>
        <time>2014-04-12T13:21:05Z</time>
      </trkpt>
      <trkpt lat="43.00893" lon="-0.10739">
        <ele>568.28</ele>
        <time>2014-04-12T13:21:18Z</time>
      </trkpt>
      <trkpt lat="43.00886" lon="-0.10745">
        <ele>570.2</ele>
        <time>2014-04-12T13:21:22Z</time>
      </trkpt>
      <trkpt lat="43.00861" lon="-0.10742">
        <ele>572.6</ele>
        <time>2014-04-12T13:21:36Z</time>
      </trkpt>
      <trkpt lat="43.00848" lon="-0.10739">
        <ele>573.08</ele>
        <time>2014-04-12T13:21:43Z</time>
      </trkpt>
      <trkpt lat="43.00844" lon="-0.10737">
        <ele>574.04</ele>
        <time>2014-04-12T13:21:47Z</time>
      </trkpt>
      <trkpt lat="43.00853" lon="-0.10746">
        <ele>577.41</ele>
        <time>2014-04-12T13:21:56Z</time>
      </trkpt>
      <trkpt lat="43.00859" lon="-0.10756">
        <ele>578.37</ele>
        <time>2014-04-12T13:22:02Z</time>
      </trkpt>
      <trkpt lat="43.00866" lon="-0.10766">
        <ele>579.33</ele>
        <time>2014-04-12T13:22:09Z</time>
      </trkpt>
      <trkpt lat="43.00869" lon="-0.10771">
        <ele>580.29</ele>
        <time>2014-04-12T13:22:12Z</time>
      </trkpt>
      <trkpt lat="43.00875" lon="-0.1078">
        <ele>580.29</ele>
        <time>2014-04-12T13:22:17Z</time>
      </trkpt>
      <trkpt lat="43.00887" lon="-0.1079">
        <ele>580.77</ele>
        <time>2014-04-12T13:22:24Z</time>
      </trkpt>
      <trkpt lat="43.0089" lon="-0.10793">
        <ele>581.73</ele>
        <time>2014-04-12T13:22:26Z</time>
      </trkpt>
      <trkpt lat="43.00896" lon="-0.10799">
        <ele>582.22</ele>
        <time>2014-04-12T13:22:30Z</time>
      </trkpt>
      <trkpt lat="43.0091" lon="-0.10811">
        <ele>585.58</ele>
        <time>2014-04-12T13:22:41Z</time>
      </trkpt>
      <trkpt lat="43.00919" lon="-0.10816">
        <ele>586.54</ele>
        <time>2014-04-12T13:22:47Z</time>
      </trkpt>
      <trkpt lat="43.0093" lon="-0.1083">
        <ele>588.46</ele>
        <time>2014-04-12T13:22:57Z</time>
      </trkpt>
      <trkpt lat="43.00945" lon="-0.10839">
        <ele>589.43</ele>
        <time>2014-04-12T13:23:06Z</time>
      </trkpt>
      <trkpt lat="43.00953" lon="-0.10843">
        <ele>590.39</ele>
        <time>2014-04-12T13:23:10Z</time>
      </trkpt>
      <trkpt lat="43.0096" lon="-0.10847">
        <ele>591.35</ele>
        <time>2014-04-12T13:23:14Z</time>
      </trkpt>
      <trkpt lat="43.00976" lon="-0.10854">
        <ele>593.75</ele>
        <time>2014-04-12T13:23:25Z</time>
      </trkpt>
      <trkpt lat="43.00985" lon="-0.10857">
        <ele>595.19</ele>
        <time>2014-04-12T13:23:31Z</time>
      </trkpt>
      <trkpt lat="43.01001" lon="-0.10863">
        <ele>596.64</ele>
        <time>2014-04-12T13:23:42Z</time>
      </trkpt>
      <trkpt lat="43.01008" lon="-0.10873">
        <ele>598.56</ele>
        <time>2014-04-12T13:23:50Z</time>
      </trkpt>
      <trkpt lat="43.01017" lon="-0.10884">
        <ele>600</ele>
        <time>2014-04-12T13:23:57Z</time>
      </trkpt>
      <trkpt lat="43.01019" lon="-0.10893">
        <ele>600</ele>
        <time>2014-04-12T13:24:02Z</time>
      </trkpt>
      <trkpt lat="43.01024" lon="-0.10898">
        <ele>601.44</ele>
        <time>2014-04-12T13:24:06Z</time>
      </trkpt>
      <trkpt lat="43.01033" lon="-0.10905">
        <ele>601.92</ele>
        <time>2014-04-12T13:24:13Z</time>
      </trkpt>
      <trkpt lat="43.01038" lon="-0.10909">
        <ele>602.4</ele>
        <time>2014-04-12T13:24:16Z</time>
      </trkpt>
      <trkpt lat="43.01044" lon="-0.10924">
        <ele>603.36</ele>
        <time>2014-04-12T13:24:24Z</time>
      </trkpt>
      <trkpt lat="43.01059" lon="-0.10938">
        <ele>604.81</ele>
        <time>2014-04-12T13:24:35Z</time>
      </trkpt>
      <trkpt lat="43.01083" lon="-0.10964">
        <ele>607.21</ele>
        <time>2014-04-12T13:24:51Z</time>
      </trkpt>
      <trkpt lat="43.01104" lon="-0.10996">
        <ele>608.17</ele>
        <time>2014-04-12T13:25:08Z</time>
      </trkpt>
      <trkpt lat="43.01117" lon="-0.11033">
        <ele>610.09</ele>
        <time>2014-04-12T13:25:23Z</time>
      </trkpt>
      <trkpt lat="43.01133" lon="-0.11071">
        <ele>612.02</ele>
        <time>2014-04-12T13:25:38Z</time>
      </trkpt>
      <trkpt lat="43.01141" lon="-0.11106">
        <ele>614.9</ele>
        <time>2014-04-12T13:25:51Z</time>
      </trkpt>
      <trkpt lat="43.01133" lon="-0.11115">
        <ele>614.9</ele>
        <time>2014-04-12T13:25:56Z</time>
      </trkpt>
      <trkpt lat="43.01104" lon="-0.11106">
        <ele>615.86</ele>
        <time>2014-04-12T13:26:10Z</time>
      </trkpt>
      <trkpt lat="43.01087" lon="-0.11093">
        <ele>616.82</ele>
        <time>2014-04-12T13:26:19Z</time>
      </trkpt>
      <trkpt lat="43.01065" lon="-0.11083">
        <ele>620.19</ele>
        <time>2014-04-12T13:26:32Z</time>
      </trkpt>
      <trkpt lat="43.01041" lon="-0.11076">
        <ele>622.59</ele>
        <time>2014-04-12T13:26:45Z</time>
      </trkpt>
      <trkpt lat="43.01019" lon="-0.11072">
        <ele>625.96</ele>
        <time>2014-04-12T13:26:57Z</time>
      </trkpt>
      <trkpt lat="43.00999" lon="-0.1109">
        <ele>628.84</ele>
        <time>2014-04-12T13:27:11Z</time>
      </trkpt>
      <trkpt lat="43.00974" lon="-0.11106">
        <ele>630.28</ele>
        <time>2014-04-12T13:27:25Z</time>
      </trkpt>
      <trkpt lat="43.00934" lon="-0.1113">
        <ele>630.76</ele>
        <time>2014-04-12T13:27:43Z</time>
      </trkpt>
      <trkpt lat="43.00913" lon="-0.11145">
        <ele>630.76</ele>
        <time>2014-04-12T13:27:51Z</time>
      </trkpt>
      <trkpt lat="43.0088" lon="-0.11168">
        <ele>630.28</ele>
        <time>2014-04-12T13:28:03Z</time>
      </trkpt>
      <trkpt lat="43.00847" lon="-0.11192">
        <ele>630.28</ele>
        <time>2014-04-12T13:28:14Z</time>
      </trkpt>
      <trkpt lat="43.00826" lon="-0.11205">
        <ele>633.17</ele>
        <time>2014-04-12T13:28:23Z</time>
      </trkpt>
      <trkpt lat="43.0079" lon="-0.11207">
        <ele>633.17</ele>
        <time>2014-04-12T13:28:35Z</time>
      </trkpt>
      <trkpt lat="43.00782" lon="-0.11208">
        <ele>632.2</ele>
        <time>2014-04-12T13:28:37Z</time>
      </trkpt>
      <trkpt lat="43.00766" lon="-0.11215">
        <ele>632.68</ele>
        <time>2014-04-12T13:28:41Z</time>
      </trkpt>
      <trkpt lat="43.0075" lon="-0.11224">
        <ele>631.72</ele>
        <time>2014-04-12T13:28:45Z</time>
      </trkpt>
      <trkpt lat="43.0068" lon="-0.11245">
        <ele>630.28</ele>
        <time>2014-04-12T13:29:00Z</time>
      </trkpt>
      <trkpt lat="43.0063" lon="-0.11248">
        <ele>630.76</ele>
        <time>2014-04-12T13:29:13Z</time>
      </trkpt>
      <trkpt lat="43.00588" lon="-0.11248">
        <ele>630.76</ele>
        <time>2014-04-12T13:29:24Z</time>
      </trkpt>
      <trkpt lat="43.00556" lon="-0.11266">
        <ele>634.13</ele>
        <time>2014-04-12T13:29:36Z</time>
      </trkpt>
      <trkpt lat="43.00533" lon="-0.11292">
        <ele>636.53</ele>
        <time>2014-04-12T13:29:48Z</time>
      </trkpt>
      <trkpt lat="43.00526" lon="-0.11299">
        <ele>637.49</ele>
        <time>2014-04-12T13:29:52Z</time>
      </trkpt>
      <trkpt lat="43.00517" lon="-0.11307">
        <ele>637.97</ele>
        <time>2014-04-12T13:29:58Z</time>
      </trkpt>
      <trkpt lat="43.00486" lon="-0.11327">
        <ele>639.89</ele>
        <time>2014-04-12T13:30:11Z</time>
      </trkpt>
      <trkpt lat="43.00455" lon="-0.11344">
        <ele>641.34</ele>
        <time>2014-04-12T13:30:22Z</time>
      </trkpt>
      <trkpt lat="43.00416" lon="-0.11339">
        <ele>640.86</ele>
        <time>2014-04-12T13:30:35Z</time>
      </trkpt>
      <trkpt lat="43.00381" lon="-0.11328">
        <ele>638.93</ele>
        <time>2014-04-12T13:30:44Z</time>
      </trkpt>
      <trkpt lat="43.00358" lon="-0.11322">
        <ele>637.97</ele>
        <time>2014-04-12T13:30:48Z</time>
      </trkpt>
      <trkpt lat="43.00346" lon="-0.11321">
        <ele>638.45</ele>
        <time>2014-04-12T13:30:50Z</time>
      </trkpt>
      <trkpt lat="43.00302" lon="-0.11314">
        <ele>638.45</ele>
        <time>2014-04-12T13:31:00Z</time>
      </trkpt>
      <trkpt lat="43.00293" lon="-0.1131">
        <ele>637.49</ele>
        <time>2014-04-12T13:31:02Z</time>
      </trkpt>
      <trkpt lat="43.00263" lon="-0.11284">
        <ele>635.09</ele>
        <time>2014-04-12T13:31:08Z</time>
      </trkpt>
      <trkpt lat="43.00233" lon="-0.11281">
        <ele>637.01</ele>
        <time>2014-04-12T13:31:16Z</time>
      </trkpt>
      <trkpt lat="43.00213" lon="-0.11295">
        <ele>639.41</ele>
        <time>2014-04-12T13:31:27Z</time>
      </trkpt>
      <trkpt lat="43.00187" lon="-0.11293">
        <ele>640.38</ele>
        <time>2014-04-12T13:31:37Z</time>
      </trkpt>
      <trkpt lat="43.0016" lon="-0.11291">
        <ele>641.34</ele>
        <time>2014-04-12T13:31:49Z</time>
      </trkpt>
      <trkpt lat="43.00142" lon="-0.11282">
        <ele>643.74</ele>
        <time>2014-04-12T13:32:00Z</time>
      </trkpt>
      <trkpt lat="43.00138" lon="-0.11278">
        <ele>644.7</ele>
        <time>2014-04-12T13:32:12Z</time>
      </trkpt>
      <trkpt lat="43.00133" lon="-0.11279">
        <ele>646.62</ele>
        <time>2014-04-12T13:32:22Z</time>
      </trkpt>
      <trkpt lat="43.00128" lon="-0.1128">
        <ele>646.62</ele>
        <time>2014-04-12T13:32:33Z</time>
      </trkpt>
      <trkpt lat="43.00122" lon="-0.1128">
        <ele>646.62</ele>
        <time>2014-04-12T13:32:37Z</time>
      </trkpt>
      <trkpt lat="43.00112" lon="-0.11283">
        <ele>647.59</ele>
        <time>2014-04-12T13:32:43Z</time>
      </trkpt>
      <trkpt lat="43.00105" lon="-0.11285">
        <ele>648.07</ele>
        <time>2014-04-12T13:33:00Z</time>
      </trkpt>
      <trkpt lat="43.00104" lon="-0.11285">
        <ele>648.07</ele>
        <time>2014-04-12T13:33:18Z</time>
      </trkpt>
      <trkpt lat="43.00102" lon="-0.11286">
        <ele>648.55</ele>
        <time>2014-04-12T13:33:25Z</time>
      </trkpt>
      <trkpt lat="43.00096" lon="-0.11291">
        <ele>649.51</ele>
        <time>2014-04-12T13:33:34Z</time>
      </trkpt>
      <trkpt lat="43.00092" lon="-0.11294">
        <ele>649.99</ele>
        <time>2014-04-12T13:33:40Z</time>
      </trkpt>
      <trkpt lat="43.00081" lon="-0.11297">
        <ele>650.95</ele>
        <time>2014-04-12T13:33:49Z</time>
      </trkpt>
      <trkpt lat="43.00068" lon="-0.11304">
        <ele>652.39</ele>
        <time>2014-04-12T13:34:03Z</time>
      </trkpt>
      <trkpt lat="43.0005" lon="-0.11319">
        <ele>651.91</ele>
        <time>2014-04-12T13:34:13Z</time>
      </trkpt>
      <trkpt lat="43.00031" lon="-0.11335">
        <ele>653.35</ele>
        <time>2014-04-12T13:34:24Z</time>
      </trkpt>
      <trkpt lat="43.00029" lon="-0.11338">
        <ele>653.83</ele>
        <time>2014-04-12T13:34:26Z</time>
      </trkpt>
      <trkpt lat="43.00026" lon="-0.11342">
        <ele>655.28</ele>
        <time>2014-04-12T13:34:28Z</time>
      </trkpt>
      <trkpt lat="43.00017" lon="-0.11355">
        <ele>656.72</ele>
        <time>2014-04-12T13:34:44Z</time>
      </trkpt>
      <trkpt lat="43.00014" lon="-0.11357">
        <ele>655.76</ele>
        <time>2014-04-12T13:34:57Z</time>
      </trkpt>
      <trkpt lat="43.00006" lon="-0.11369">
        <ele>652.39</ele>
        <time>2014-04-12T13:35:03Z</time>
      </trkpt>
      <trkpt lat="43.00003" lon="-0.11378">
        <ele>650.95</ele>
        <time>2014-04-12T13:35:10Z</time>
      </trkpt>
      <trkpt lat="43.00003" lon="-0.11379">
        <ele>650.95</ele>
        <time>2014-04-12T13:35:16Z</time>
      </trkpt>
      <trkpt lat="43.00002" lon="-0.11388">
        <ele>649.51</ele>
        <time>2014-04-12T13:35:19Z</time>
      </trkpt>
      <trkpt lat="42.99998" lon="-0.11399">
        <ele>647.1</ele>
        <time>2014-04-12T13:35:21Z</time>
      </trkpt>
      <trkpt lat="42.99996" lon="-0.11405">
        <ele>645.66</ele>
        <time>2014-04-12T13:35:22Z</time>
      </trkpt>
      <trkpt lat="42.99985" lon="-0.11434">
        <ele>640.86</ele>
        <time>2014-04-12T13:35:26Z</time>
      </trkpt>
      <trkpt lat="42.99979" lon="-0.11449">
        <ele>639.89</ele>
        <time>2014-04-12T13:35:28Z</time>
      </trkpt>
      <trkpt lat="42.99959" lon="-0.11501">
        <ele>636.53</ele>
        <time>2014-04-12T13:35:36Z</time>
      </trkpt>
      <trkpt lat="42.99955" lon="-0.11517">
        <ele>635.57</ele>
        <time>2014-04-12T13:35:38Z</time>
      </trkpt>
      <trkpt lat="42.99952" lon="-0.11528">
        <ele>635.09</ele>
        <time>2014-04-12T13:35:40Z</time>
      </trkpt>
      <trkpt lat="42.99947" lon="-0.11537">
        <ele>629.8</ele>
        <time>2014-04-12T13:35:43Z</time>
      </trkpt>
      <trkpt lat="42.99932" lon="-0.11552">
        <ele>626.44</ele>
        <time>2014-04-12T13:35:47Z</time>
      </trkpt>
      <trkpt lat="42.99918" lon="-0.1156">
        <ele>623.55</ele>
        <time>2014-04-12T13:35:50Z</time>
      </trkpt>
      <trkpt lat="42.99913" lon="-0.11561">
        <ele>622.11</ele>
        <time>2014-04-12T13:35:53Z</time>
      </trkpt>
      <trkpt lat="42.99911" lon="-0.1156">
        <ele>621.63</ele>
        <time>2014-04-12T13:35:55Z</time>
      </trkpt>
      <trkpt lat="42.99908" lon="-0.11567">
        <ele>620.19</ele>
        <time>2014-04-12T13:35:58Z</time>
      </trkpt>
      <trkpt lat="42.99898" lon="-0.11589">
        <ele>619.23</ele>
        <time>2014-04-12T13:36:08Z</time>
      </trkpt>
      <trkpt lat="42.99897" lon="-0.11591">
        <ele>620.67</ele>
        <time>2014-04-12T13:36:09Z</time>
      </trkpt>
      <trkpt lat="42.99895" lon="-0.11605">
        <ele>624.03</ele>
        <time>2014-04-12T13:36:20Z</time>
      </trkpt>
      <trkpt lat="42.99894" lon="-0.11609">
        <ele>624.99</ele>
        <time>2014-04-12T13:36:23Z</time>
      </trkpt>
      <trkpt lat="42.99894" lon="-0.11615">
        <ele>625.47</ele>
        <time>2014-04-12T13:36:25Z</time>
      </trkpt>
      <trkpt lat="42.99894" lon="-0.11623">
        <ele>626.44</ele>
        <time>2014-04-12T13:36:28Z</time>
      </trkpt>
      <trkpt lat="42.99895" lon="-0.11628">
        <ele>626.92</ele>
        <time>2014-04-12T13:36:30Z</time>
      </trkpt>
      <trkpt lat="42.99893" lon="-0.1165">
        <ele>628.84</ele>
        <time>2014-04-12T13:36:40Z</time>
      </trkpt>
      <trkpt lat="42.99893" lon="-0.11661">
        <ele>630.76</ele>
        <time>2014-04-12T13:36:45Z</time>
      </trkpt>
      <trkpt lat="42.99893" lon="-0.11665">
        <ele>631.24</ele>
        <time>2014-04-12T13:36:47Z</time>
      </trkpt>
      <trkpt lat="42.99894" lon="-0.11667">
        <ele>630.76</ele>
        <time>2014-04-12T13:36:48Z</time>
      </trkpt>
      <trkpt lat="42.99893" lon="-0.11672">
        <ele>630.76</ele>
        <time>2014-04-12T13:36:50Z</time>
      </trkpt>
      <trkpt lat="42.99894" lon="-0.11678">
        <ele>629.8</ele>
        <time>2014-04-12T13:36:53Z</time>
      </trkpt>
      <trkpt lat="42.99893" lon="-0.11688">
        <ele>630.28</ele>
        <time>2014-04-12T13:36:58Z</time>
      </trkpt>
      <trkpt lat="42.9989" lon="-0.11701">
        <ele>629.8</ele>
        <time>2014-04-12T13:37:05Z</time>
      </trkpt>
      <trkpt lat="42.9988" lon="-0.11718">
        <ele>630.28</ele>
        <time>2014-04-12T13:37:13Z</time>
      </trkpt>
      <trkpt lat="42.99875" lon="-0.11723">
        <ele>630.28</ele>
        <time>2014-04-12T13:37:17Z</time>
      </trkpt>
      <trkpt lat="42.99874" lon="-0.11726">
        <ele>630.28</ele>
        <time>2014-04-12T13:37:19Z</time>
      </trkpt>
      <trkpt lat="42.99864" lon="-0.11744">
        <ele>628.36</ele>
        <time>2014-04-12T13:37:27Z</time>
      </trkpt>
      <trkpt lat="42.99861" lon="-0.11754">
        <ele>629.32</ele>
        <time>2014-04-12T13:37:31Z</time>
      </trkpt>
      <trkpt lat="42.99856" lon="-0.11765">
        <ele>629.32</ele>
        <time>2014-04-12T13:37:37Z</time>
      </trkpt>
      <trkpt lat="42.99849" lon="-0.1177">
        <ele>628.84</ele>
        <time>2014-04-12T13:37:41Z</time>
      </trkpt>
      <trkpt lat="42.99834" lon="-0.11785">
        <ele>630.76</ele>
        <time>2014-04-12T13:37:50Z</time>
      </trkpt>
      <trkpt lat="42.99827" lon="-0.11795">
        <ele>632.2</ele>
        <time>2014-04-12T13:38:00Z</time>
      </trkpt>
      <trkpt lat="42.99827" lon="-0.11795">
        <ele>632.2</ele>
        <time>2014-04-12T13:38:01Z</time>
      </trkpt>
      <trkpt lat="42.99821" lon="-0.118">
        <ele>634.13</ele>
        <time>2014-04-12T13:38:10Z</time>
      </trkpt>
      <trkpt lat="42.99812" lon="-0.11808">
        <ele>635.09</ele>
        <time>2014-04-12T13:38:20Z</time>
      </trkpt>
      <trkpt lat="42.99808" lon="-0.11813">
        <ele>636.05</ele>
        <time>2014-04-12T13:38:32Z</time>
      </trkpt>
      <trkpt lat="42.99801" lon="-0.1182">
        <ele>638.45</ele>
        <time>2014-04-12T13:38:45Z</time>
      </trkpt>
      <trkpt lat="42.99799" lon="-0.11822">
        <ele>639.41</ele>
        <time>2014-04-12T13:38:55Z</time>
      </trkpt>
      <trkpt lat="42.99795" lon="-0.11825">
        <ele>640.86</ele>
        <time>2014-04-12T13:39:08Z</time>
      </trkpt>
      <trkpt lat="42.99786" lon="-0.11832">
        <ele>644.22</ele>
        <time>2014-04-12T13:39:21Z</time>
      </trkpt>
      <trkpt lat="42.99775" lon="-0.11839">
        <ele>643.74</ele>
        <time>2014-04-12T13:39:30Z</time>
      </trkpt>
      <trkpt lat="42.99773" lon="-0.1184">
        <ele>644.22</ele>
        <time>2014-04-12T13:39:31Z</time>
      </trkpt>
      <trkpt lat="42.99769" lon="-0.11844">
        <ele>645.18</ele>
        <time>2014-04-12T13:39:35Z</time>
      </trkpt>
      <trkpt lat="42.99765" lon="-0.11846">
        <ele>646.14</ele>
        <time>2014-04-12T13:39:39Z</time>
      </trkpt>
      <trkpt lat="42.99747" lon="-0.1186">
        <ele>646.14</ele>
        <time>2014-04-12T13:39:50Z</time>
      </trkpt>
      <trkpt lat="42.99722" lon="-0.11873">
        <ele>648.07</ele>
        <time>2014-04-12T13:40:02Z</time>
      </trkpt>
      <trkpt lat="42.99693" lon="-0.11891">
        <ele>649.99</ele>
        <time>2014-04-12T13:40:15Z</time>
      </trkpt>
      <trkpt lat="42.99673" lon="-0.11905">
        <ele>652.87</ele>
        <time>2014-04-12T13:40:28Z</time>
      </trkpt>
      <trkpt lat="42.99661" lon="-0.11915">
        <ele>654.8</ele>
        <time>2014-04-12T13:40:37Z</time>
      </trkpt>
      <trkpt lat="42.99658" lon="-0.11921">
        <ele>656.24</ele>
        <time>2014-04-12T13:40:41Z</time>
      </trkpt>
      <trkpt lat="42.99655" lon="-0.11929">
        <ele>658.16</ele>
        <time>2014-04-12T13:40:46Z</time>
      </trkpt>
      <trkpt lat="42.9965" lon="-0.11933">
        <ele>660.08</ele>
        <time>2014-04-12T13:40:51Z</time>
      </trkpt>
      <trkpt lat="42.99649" lon="-0.11934">
        <ele>661.04</ele>
        <time>2014-04-12T13:40:52Z</time>
      </trkpt>
      <trkpt lat="42.99647" lon="-0.11937">
        <ele>661.04</ele>
        <time>2014-04-12T13:40:55Z</time>
      </trkpt>
      <trkpt lat="42.99641" lon="-0.11941">
        <ele>660.08</ele>
        <time>2014-04-12T13:41:00Z</time>
      </trkpt>
      <trkpt lat="42.99639" lon="-0.11944">
        <ele>661.04</ele>
        <time>2014-04-12T13:41:14Z</time>
      </trkpt>
      <trkpt lat="42.99639" lon="-0.11945">
        <ele>658.16</ele>
        <time>2014-04-12T13:41:19Z</time>
      </trkpt>
      <trkpt lat="42.99639" lon="-0.11945">
        <ele>666.33</ele>
        <time>2014-04-12T13:41:23Z</time>
      </trkpt>
      <trkpt lat="42.99639" lon="-0.11945">
        <ele>661.04</ele>
        <time>2014-04-12T13:41:24Z</time>
      </trkpt>
      <trkpt lat="42.99639" lon="-0.11945">
        <ele>650.47</ele>
        <time>2014-04-12T13:41:25Z</time>
      </trkpt>
      <trkpt lat="42.99639" lon="-0.11945">
        <ele>662.49</ele>
        <time>2014-04-12T13:41:26Z</time>
      </trkpt>
      <trkpt lat="42.99639" lon="-0.11945">
        <ele>668.73</ele>
        <time>2014-04-12T13:41:28Z</time>
      </trkpt>
      <trkpt lat="42.99639" lon="-0.11945">
        <ele>654.8</ele>
        <time>2014-04-12T13:41:29Z</time>
      </trkpt>
      <trkpt lat="42.99639" lon="-0.11945">
        <ele>664.41</ele>
        <time>2014-04-12T13:41:30Z</time>
      </trkpt>
      <trkpt lat="42.99639" lon="-0.11945">
        <ele>660.56</ele>
        <time>2014-04-12T13:41:31Z</time>
      </trkpt>
      <trkpt lat="42.99625" lon="-0.11957">
        <ele>660.08</ele>
        <time>2014-04-12T13:41:41Z</time>
      </trkpt>
      <trkpt lat="42.99603" lon="-0.11992">
        <ele>659.6</ele>
        <time>2014-04-12T13:41:55Z</time>
      </trkpt>
      <trkpt lat="42.99599" lon="-0.12001">
        <ele>659.12</ele>
        <time>2014-04-12T13:41:58Z</time>
      </trkpt>
      <trkpt lat="42.99601" lon="-0.12026">
        <ele>662.01</ele>
        <time>2014-04-12T13:42:10Z</time>
      </trkpt>
      <trkpt lat="42.996" lon="-0.12042">
        <ele>663.93</ele>
        <time>2014-04-12T13:42:18Z</time>
      </trkpt>
      <trkpt lat="42.996" lon="-0.12055">
        <ele>664.89</ele>
        <time>2014-04-12T13:42:24Z</time>
      </trkpt>
      <trkpt lat="42.99602" lon="-0.12078">
        <ele>666.81</ele>
        <time>2014-04-12T13:42:36Z</time>
      </trkpt>
      <trkpt lat="42.99597" lon="-0.12089">
        <ele>666.33</ele>
        <time>2014-04-12T13:42:41Z</time>
      </trkpt>
      <trkpt lat="42.99582" lon="-0.12126">
        <ele>665.85</ele>
        <time>2014-04-12T13:42:54Z</time>
      </trkpt>
      <trkpt lat="42.99575" lon="-0.12141">
        <ele>665.85</ele>
        <time>2014-04-12T13:43:00Z</time>
      </trkpt>
      <trkpt lat="42.99559" lon="-0.12165">
        <ele>665.85</ele>
        <time>2014-04-12T13:43:09Z</time>
      </trkpt>
      <trkpt lat="42.99551" lon="-0.12183">
        <ele>666.33</ele>
        <time>2014-04-12T13:43:16Z</time>
      </trkpt>
      <trkpt lat="42.99546" lon="-0.12196">
        <ele>666.33</ele>
        <time>2014-04-12T13:43:21Z</time>
      </trkpt>
      <trkpt lat="42.99544" lon="-0.12202">
        <ele>666.33</ele>
        <time>2014-04-12T13:43:23Z</time>
      </trkpt>
      <trkpt lat="42.99528" lon="-0.12234">
        <ele>667.29</ele>
        <time>2014-04-12T13:43:35Z</time>
      </trkpt>
      <trkpt lat="42.9951" lon="-0.1227">
        <ele>667.77</ele>
        <time>2014-04-12T13:43:47Z</time>
      </trkpt>
      <trkpt lat="42.99484" lon="-0.12306">
        <ele>667.29</ele>
        <time>2014-04-12T13:44:02Z</time>
      </trkpt>
      <trkpt lat="42.99464" lon="-0.12341">
        <ele>667.29</ele>
        <time>2014-04-12T13:44:14Z</time>
      </trkpt>
      <trkpt lat="42.9946" lon="-0.12348">
        <ele>666.33</ele>
        <time>2014-04-12T13:44:16Z</time>
      </trkpt>
      <trkpt lat="42.99449" lon="-0.12366">
        <ele>667.29</ele>
        <time>2014-04-12T13:44:22Z</time>
      </trkpt>
      <trkpt lat="42.99425" lon="-0.12402">
        <ele>670.18</ele>
        <time>2014-04-12T13:44:37Z</time>
      </trkpt>
      <trkpt lat="42.99399" lon="-0.1242">
        <ele>672.1</ele>
        <time>2014-04-12T13:44:50Z</time>
      </trkpt>
      <trkpt lat="42.99371" lon="-0.1244">
        <ele>674.98</ele>
        <time>2014-04-12T13:45:06Z</time>
      </trkpt>
      <trkpt lat="42.99354" lon="-0.12463">
        <ele>677.87</ele>
        <time>2014-04-12T13:45:19Z</time>
      </trkpt>
      <trkpt lat="42.99352" lon="-0.12465">
        <ele>677.87</ele>
        <time>2014-04-12T13:45:20Z</time>
      </trkpt>
      <trkpt lat="42.99355" lon="-0.12469">
        <ele>679.31</ele>
        <time>2014-04-12T13:45:25Z</time>
      </trkpt>
      <trkpt lat="42.9936" lon="-0.12473">
        <ele>680.75</ele>
        <time>2014-04-12T13:45:31Z</time>
      </trkpt>
      <trkpt lat="42.99364" lon="-0.12485">
        <ele>682.19</ele>
        <time>2014-04-12T13:45:38Z</time>
      </trkpt>
      <trkpt lat="42.99366" lon="-0.12493">
        <ele>682.67</ele>
        <time>2014-04-12T13:45:42Z</time>
      </trkpt>
      <trkpt lat="42.9937" lon="-0.12513">
        <ele>686.04</ele>
        <time>2014-04-12T13:45:53Z</time>
      </trkpt>
      <trkpt lat="42.99374" lon="-0.12534">
        <ele>688.44</ele>
        <time>2014-04-12T13:46:04Z</time>
      </trkpt>
      <trkpt lat="42.99387" lon="-0.12561">
        <ele>692.29</ele>
        <time>2014-04-12T13:46:20Z</time>
      </trkpt>
      <trkpt lat="42.99398" lon="-0.12577">
        <ele>695.65</ele>
        <time>2014-04-12T13:46:32Z</time>
      </trkpt>
      <trkpt lat="42.99403" lon="-0.12585">
        <ele>697.09</ele>
        <time>2014-04-12T13:46:38Z</time>
      </trkpt>
      <trkpt lat="42.99406" lon="-0.12589">
        <ele>698.53</ele>
        <time>2014-04-12T13:46:41Z</time>
      </trkpt>
      <trkpt lat="42.99407" lon="-0.12591">
        <ele>699.02</ele>
        <time>2014-04-12T13:46:42Z</time>
      </trkpt>
      <trkpt lat="42.99408" lon="-0.12593">
        <ele>699.98</ele>
        <time>2014-04-12T13:46:44Z</time>
      </trkpt>
      <trkpt lat="42.99412" lon="-0.12601">
        <ele>701.42</ele>
        <time>2014-04-12T13:46:49Z</time>
      </trkpt>
      <trkpt lat="42.99416" lon="-0.1261">
        <ele>702.86</ele>
        <time>2014-04-12T13:46:56Z</time>
      </trkpt>
      <trkpt lat="42.99426" lon="-0.12626">
        <ele>706.23</ele>
        <time>2014-04-12T13:47:09Z</time>
      </trkpt>
      <trkpt lat="42.99431" lon="-0.12633">
        <ele>708.15</ele>
        <time>2014-04-12T13:47:15Z</time>
      </trkpt>
      <trkpt lat="42.99443" lon="-0.12633">
        <ele>710.07</ele>
        <time>2014-04-12T13:47:25Z</time>
      </trkpt>
      <trkpt lat="42.99462" lon="-0.12645">
        <ele>713.44</ele>
        <time>2014-04-12T13:47:40Z</time>
      </trkpt>
      <trkpt lat="42.99477" lon="-0.12658">
        <ele>716.8</ele>
        <time>2014-04-12T13:47:53Z</time>
      </trkpt>
      <trkpt lat="42.99481" lon="-0.12661">
        <ele>717.28</ele>
        <time>2014-04-12T13:47:56Z</time>
      </trkpt>
      <trkpt lat="42.99498" lon="-0.12672">
        <ele>721.13</ele>
        <time>2014-04-12T13:48:11Z</time>
      </trkpt>
      <trkpt lat="42.99517" lon="-0.12681">
        <ele>724.01</ele>
        <time>2014-04-12T13:48:26Z</time>
      </trkpt>
      <trkpt lat="42.99533" lon="-0.12688">
        <ele>726.89</ele>
        <time>2014-04-12T13:48:38Z</time>
      </trkpt>
      <trkpt lat="42.99539" lon="-0.12692">
        <ele>728.82</ele>
        <time>2014-04-12T13:48:43Z</time>
      </trkpt>
      <trkpt lat="42.99555" lon="-0.127">
        <ele>732.18</ele>
        <time>2014-04-12T13:48:55Z</time>
      </trkpt>
      <trkpt lat="42.99563" lon="-0.12703">
        <ele>733.62</ele>
        <time>2014-04-12T13:49:02Z</time>
      </trkpt>
      <trkpt lat="42.99565" lon="-0.12697">
        <ele>735.07</ele>
        <time>2014-04-12T13:49:07Z</time>
      </trkpt>
      <trkpt lat="42.99567" lon="-0.12708">
        <ele>735.07</ele>
        <time>2014-04-12T13:49:19Z</time>
      </trkpt>
      <trkpt lat="42.99564" lon="-0.127">
        <ele>734.58</ele>
        <time>2014-04-12T13:49:25Z</time>
      </trkpt>
      <trkpt lat="42.99566" lon="-0.12699">
        <ele>734.58</ele>
        <time>2014-04-12T13:49:27Z</time>
      </trkpt>
      <trkpt lat="42.99566" lon="-0.12706">
        <ele>735.07</ele>
        <time>2014-04-12T13:49:32Z</time>
      </trkpt>
      <trkpt lat="42.99565" lon="-0.127">
        <ele>735.07</ele>
        <time>2014-04-12T13:49:40Z</time>
      </trkpt>
      <trkpt lat="42.99566" lon="-0.12706">
        <ele>735.07</ele>
        <time>2014-04-12T13:49:44Z</time>
      </trkpt>
      <trkpt lat="42.99568" lon="-0.12713">
        <ele>736.03</ele>
        <time>2014-04-12T13:49:48Z</time>
      </trkpt>
      <trkpt lat="42.99571" lon="-0.12711">
        <ele>736.99</ele>
        <time>2014-04-12T13:49:52Z</time>
      </trkpt>
      <trkpt lat="42.99572" lon="-0.12707">
        <ele>737.95</ele>
        <time>2014-04-12T13:50:03Z</time>
      </trkpt>
      <trkpt lat="42.99573" lon="-0.12705">
        <ele>738.43</ele>
        <time>2014-04-12T13:50:06Z</time>
      </trkpt>
      <trkpt lat="42.99574" lon="-0.12697">
        <ele>739.39</ele>
        <time>2014-04-12T13:50:12Z</time>
      </trkpt>
      <trkpt lat="42.99581" lon="-0.12688">
        <ele>741.79</ele>
        <time>2014-04-12T13:50:18Z</time>
      </trkpt>
      <trkpt lat="42.9959" lon="-0.12686">
        <ele>743.72</ele>
        <time>2014-04-12T13:50:26Z</time>
      </trkpt>
      <trkpt lat="42.99596" lon="-0.12684">
        <ele>745.64</ele>
        <time>2014-04-12T13:50:30Z</time>
      </trkpt>
      <trkpt lat="42.99608" lon="-0.12673">
        <ele>749</ele>
        <time>2014-04-12T13:50:44Z</time>
      </trkpt>
      <trkpt lat="42.99619" lon="-0.12662">
        <ele>751.89</ele>
        <time>2014-04-12T13:50:59Z</time>
      </trkpt>
      <trkpt lat="42.99638" lon="-0.12645">
        <ele>753.81</ele>
        <time>2014-04-12T13:51:13Z</time>
      </trkpt>
      <trkpt lat="42.99651" lon="-0.12632">
        <ele>757.66</ele>
        <time>2014-04-12T13:51:26Z</time>
      </trkpt>
      <trkpt lat="42.99653" lon="-0.12629">
        <ele>757.66</ele>
        <time>2014-04-12T13:51:28Z</time>
      </trkpt>
      <trkpt lat="42.99658" lon="-0.12619">
        <ele>759.58</ele>
        <time>2014-04-12T13:51:36Z</time>
      </trkpt>
      <trkpt lat="42.99664" lon="-0.12613">
        <ele>761.02</ele>
        <time>2014-04-12T13:51:42Z</time>
      </trkpt>
      <trkpt lat="42.99668" lon="-0.12609">
        <ele>761.98</ele>
        <time>2014-04-12T13:51:46Z</time>
      </trkpt>
      <trkpt lat="42.99678" lon="-0.12589">
        <ele>765.35</ele>
        <time>2014-04-12T13:52:01Z</time>
      </trkpt>
      <trkpt lat="42.99679" lon="-0.12587">
        <ele>765.83</ele>
        <time>2014-04-12T13:52:02Z</time>
      </trkpt>
      <trkpt lat="42.99681" lon="-0.12585">
        <ele>765.83</ele>
        <time>2014-04-12T13:52:04Z</time>
      </trkpt>
      <trkpt lat="42.99689" lon="-0.12569">
        <ele>769.19</ele>
        <time>2014-04-12T13:52:18Z</time>
      </trkpt>
      <trkpt lat="42.99699" lon="-0.12554">
        <ele>772.08</ele>
        <time>2014-04-12T13:52:30Z</time>
      </trkpt>
      <trkpt lat="42.99701" lon="-0.12542">
        <ele>774.48</ele>
        <time>2014-04-12T13:52:38Z</time>
      </trkpt>
      <trkpt lat="42.99702" lon="-0.12538">
        <ele>774.96</ele>
        <time>2014-04-12T13:52:42Z</time>
      </trkpt>
      <trkpt lat="42.99701" lon="-0.12536">
        <ele>775.44</ele>
        <time>2014-04-12T13:52:44Z</time>
      </trkpt>
      <trkpt lat="42.99704" lon="-0.12527">
        <ele>777.84</ele>
        <time>2014-04-12T13:52:52Z</time>
      </trkpt>
      <trkpt lat="42.99706" lon="-0.12513">
        <ele>779.77</ele>
        <time>2014-04-12T13:53:04Z</time>
      </trkpt>
      <trkpt lat="42.9971" lon="-0.12509">
        <ele>780.25</ele>
        <time>2014-04-12T13:53:22Z</time>
      </trkpt>
      <trkpt lat="42.99716" lon="-0.12507">
        <ele>787.46</ele>
        <time>2014-04-12T13:53:49Z</time>
      </trkpt>
      <trkpt lat="42.99716" lon="-0.12507">
        <ele>780.25</ele>
        <time>2014-04-12T13:53:50Z</time>
      </trkpt>
      <trkpt lat="42.99719" lon="-0.12505">
        <ele>779.77</ele>
        <time>2014-04-12T13:54:16Z</time>
      </trkpt>
      <trkpt lat="42.9972" lon="-0.12505">
        <ele>780.25</ele>
        <time>2014-04-12T13:54:41Z</time>
      </trkpt>
      <trkpt lat="42.99721" lon="-0.12505">
        <ele>780.25</ele>
        <time>2014-04-12T13:54:58Z</time>
      </trkpt>
      <trkpt lat="42.99724" lon="-0.12508">
        <ele>781.21</ele>
        <time>2014-04-12T13:55:02Z</time>
      </trkpt>
      <trkpt lat="42.99733" lon="-0.1251">
        <ele>785.05</ele>
        <time>2014-04-12T13:55:10Z</time>
      </trkpt>
      <trkpt lat="42.99735" lon="-0.12508">
        <ele>786.02</ele>
        <time>2014-04-12T13:55:12Z</time>
      </trkpt>
      <trkpt lat="42.99739" lon="-0.12503">
        <ele>788.42</ele>
        <time>2014-04-12T13:55:19Z</time>
      </trkpt>
      <trkpt lat="42.99745" lon="-0.12494">
        <ele>791.3</ele>
        <time>2014-04-12T13:55:29Z</time>
      </trkpt>
      <trkpt lat="42.99746" lon="-0.12493">
        <ele>791.3</ele>
        <time>2014-04-12T13:55:30Z</time>
      </trkpt>
      <trkpt lat="42.9976" lon="-0.12482">
        <ele>794.19</ele>
        <time>2014-04-12T13:55:42Z</time>
      </trkpt>
      <trkpt lat="42.99771" lon="-0.12478">
        <ele>797.55</ele>
        <time>2014-04-12T13:55:52Z</time>
      </trkpt>
      <trkpt lat="42.99771" lon="-0.12479">
        <ele>797.55</ele>
        <time>2014-04-12T13:55:53Z</time>
      </trkpt>
      <trkpt lat="42.99773" lon="-0.12485">
        <ele>799.47</ele>
        <time>2014-04-12T13:56:01Z</time>
      </trkpt>
      <trkpt lat="42.99771" lon="-0.12501">
        <ele>801.4</ele>
        <time>2014-04-12T13:56:11Z</time>
      </trkpt>
      <trkpt lat="42.99776" lon="-0.12506">
        <ele>803.8</ele>
        <time>2014-04-12T13:56:20Z</time>
      </trkpt>
      <trkpt lat="42.99784" lon="-0.12517">
        <ele>807.16</ele>
        <time>2014-04-12T13:56:32Z</time>
      </trkpt>
      <trkpt lat="42.99786" lon="-0.12524">
        <ele>808.13</ele>
        <time>2014-04-12T13:56:37Z</time>
      </trkpt>
      <trkpt lat="42.99788" lon="-0.12529">
        <ele>809.57</ele>
        <time>2014-04-12T13:56:40Z</time>
      </trkpt>
      <trkpt lat="42.9979" lon="-0.12532">
        <ele>810.05</ele>
        <time>2014-04-12T13:56:43Z</time>
      </trkpt>
      <trkpt lat="42.9979" lon="-0.12537">
        <ele>810.53</ele>
        <time>2014-04-12T13:56:56Z</time>
      </trkpt>
      <trkpt lat="42.99791" lon="-0.12542">
        <ele>812.45</ele>
        <time>2014-04-12T13:57:09Z</time>
      </trkpt>
      <trkpt lat="42.99791" lon="-0.12547">
        <ele>812.93</ele>
        <time>2014-04-12T13:57:18Z</time>
      </trkpt>
      <trkpt lat="42.99793" lon="-0.12548">
        <ele>812.93</ele>
        <time>2014-04-12T13:57:32Z</time>
      </trkpt>
      <trkpt lat="42.99793" lon="-0.12548">
        <ele>812.93</ele>
        <time>2014-04-12T13:57:38Z</time>
      </trkpt>
      <trkpt lat="42.99793" lon="-0.1255">
        <ele>813.41</ele>
        <time>2014-04-12T13:57:40Z</time>
      </trkpt>
      <trkpt lat="42.99797" lon="-0.12558">
        <ele>815.82</ele>
        <time>2014-04-12T13:57:48Z</time>
      </trkpt>
      <trkpt lat="42.99803" lon="-0.12573">
        <ele>819.66</ele>
        <time>2014-04-12T13:57:59Z</time>
      </trkpt>
      <trkpt lat="42.99813" lon="-0.12586">
        <ele>822.55</ele>
        <time>2014-04-12T13:58:10Z</time>
      </trkpt>
      <trkpt lat="42.99821" lon="-0.12588">
        <ele>824.47</ele>
        <time>2014-04-12T13:58:21Z</time>
      </trkpt>
      <trkpt lat="42.99824" lon="-0.12591">
        <ele>825.43</ele>
        <time>2014-04-12T13:58:29Z</time>
      </trkpt>
      <trkpt lat="42.99841" lon="-0.12593">
        <ele>828.31</ele>
        <time>2014-04-12T13:58:41Z</time>
      </trkpt>
      <trkpt lat="42.99845" lon="-0.12595">
        <ele>828.79</ele>
        <time>2014-04-12T13:58:45Z</time>
      </trkpt>
      <trkpt lat="42.9986" lon="-0.12587">
        <ele>829.76</ele>
        <time>2014-04-12T13:58:53Z</time>
      </trkpt>
      <trkpt lat="42.99868" lon="-0.12588">
        <ele>832.16</ele>
        <time>2014-04-12T13:59:04Z</time>
      </trkpt>
      <trkpt lat="42.99873" lon="-0.12589">
        <ele>832.64</ele>
        <time>2014-04-12T13:59:16Z</time>
      </trkpt>
      <trkpt lat="42.99873" lon="-0.12589">
        <ele>832.16</ele>
        <time>2014-04-12T13:59:40Z</time>
      </trkpt>
      <trkpt lat="42.99875" lon="-0.12589">
        <ele>832.64</ele>
        <time>2014-04-12T14:00:01Z</time>
      </trkpt>
      <trkpt lat="42.99878" lon="-0.12588">
        <ele>833.12</ele>
        <time>2014-04-12T14:00:31Z</time>
      </trkpt>
      <trkpt lat="42.99876" lon="-0.12586">
        <ele>832.64</ele>
        <time>2014-04-12T14:01:04Z</time>
      </trkpt>
      <trkpt lat="42.99878" lon="-0.12586">
        <ele>832.64</ele>
        <time>2014-04-12T14:01:39Z</time>
      </trkpt>
      <trkpt lat="42.9988" lon="-0.12585">
        <ele>832.64</ele>
        <time>2014-04-12T14:01:58Z</time>
      </trkpt>
      <trkpt lat="42.9988" lon="-0.12586">
        <ele>832.64</ele>
        <time>2014-04-12T14:02:20Z</time>
      </trkpt>
      <trkpt lat="42.99877" lon="-0.12589">
        <ele>833.6</ele>
        <time>2014-04-12T14:02:24Z</time>
      </trkpt>
      <trkpt lat="42.99878" lon="-0.12592">
        <ele>836.48</ele>
        <time>2014-04-12T14:02:35Z</time>
      </trkpt>
      <trkpt lat="42.9988" lon="-0.12594">
        <ele>835.52</ele>
        <time>2014-04-12T14:02:53Z</time>
      </trkpt>
      <trkpt lat="42.99882" lon="-0.12597">
        <ele>835.52</ele>
        <time>2014-04-12T14:03:16Z</time>
      </trkpt>
      <trkpt lat="42.99886" lon="-0.12605">
        <ele>838.41</ele>
        <time>2014-04-12T14:03:27Z</time>
      </trkpt>
      <trkpt lat="42.9989" lon="-0.12609">
        <ele>840.33</ele>
        <time>2014-04-12T14:03:40Z</time>
      </trkpt>
      <trkpt lat="42.99894" lon="-0.12613">
        <ele>841.77</ele>
        <time>2014-04-12T14:03:51Z</time>
      </trkpt>
      <trkpt lat="42.99901" lon="-0.12624">
        <ele>844.66</ele>
        <time>2014-04-12T14:04:02Z</time>
      </trkpt>
      <trkpt lat="42.99907" lon="-0.12638">
        <ele>847.54</ele>
        <time>2014-04-12T14:04:12Z</time>
      </trkpt>
      <trkpt lat="42.99917" lon="-0.12649">
        <ele>849.94</ele>
        <time>2014-04-12T14:04:24Z</time>
      </trkpt>
      <trkpt lat="42.99923" lon="-0.12658">
        <ele>851.87</ele>
        <time>2014-04-12T14:04:31Z</time>
      </trkpt>
      <trkpt lat="42.99926" lon="-0.12666">
        <ele>852.83</ele>
        <time>2014-04-12T14:04:36Z</time>
      </trkpt>
      <trkpt lat="42.99932" lon="-0.12677">
        <ele>854.27</ele>
        <time>2014-04-12T14:04:44Z</time>
      </trkpt>
      <trkpt lat="42.99936" lon="-0.12689">
        <ele>856.67</ele>
        <time>2014-04-12T14:04:51Z</time>
      </trkpt>
      <trkpt lat="42.99943" lon="-0.12702">
        <ele>860.04</ele>
        <time>2014-04-12T14:05:02Z</time>
      </trkpt>
      <trkpt lat="42.99945" lon="-0.12706">
        <ele>860.52</ele>
        <time>2014-04-12T14:05:04Z</time>
      </trkpt>
      <trkpt lat="42.99952" lon="-0.12718">
        <ele>863.4</ele>
        <time>2014-04-12T14:05:15Z</time>
      </trkpt>
      <trkpt lat="42.99956" lon="-0.12733">
        <ele>866.77</ele>
        <time>2014-04-12T14:05:27Z</time>
      </trkpt>
      <trkpt lat="42.99958" lon="-0.12739">
        <ele>867.73</ele>
        <time>2014-04-12T14:05:31Z</time>
      </trkpt>
      <trkpt lat="42.99963" lon="-0.12743">
        <ele>869.17</ele>
        <time>2014-04-12T14:05:38Z</time>
      </trkpt>
      <trkpt lat="42.99976" lon="-0.12751">
        <ele>870.13</ele>
        <time>2014-04-12T14:05:49Z</time>
      </trkpt>
      <trkpt lat="42.99991" lon="-0.1276">
        <ele>873.01</ele>
        <time>2014-04-12T14:06:03Z</time>
      </trkpt>
      <trkpt lat="42.99991" lon="-0.12761">
        <ele>873.01</ele>
        <time>2014-04-12T14:06:05Z</time>
      </trkpt>
      <trkpt lat="43.00005" lon="-0.12767">
        <ele>876.38</ele>
        <time>2014-04-12T14:06:17Z</time>
      </trkpt>
      <trkpt lat="43.00013" lon="-0.12771">
        <ele>877.82</ele>
        <time>2014-04-12T14:06:24Z</time>
      </trkpt>
      <trkpt lat="43.00018" lon="-0.12776">
        <ele>878.78</ele>
        <time>2014-04-12T14:06:28Z</time>
      </trkpt>
      <trkpt lat="43.00031" lon="-0.12783">
        <ele>881.67</ele>
        <time>2014-04-12T14:06:39Z</time>
      </trkpt>
      <trkpt lat="43.00041" lon="-0.1279">
        <ele>883.59</ele>
        <time>2014-04-12T14:06:48Z</time>
      </trkpt>
      <trkpt lat="43.0005" lon="-0.12796">
        <ele>885.99</ele>
        <time>2014-04-12T14:06:59Z</time>
      </trkpt>
      <trkpt lat="43.00053" lon="-0.12798">
        <ele>886.95</ele>
        <time>2014-04-12T14:07:02Z</time>
      </trkpt>
      <trkpt lat="43.00069" lon="-0.12797">
        <ele>890.32</ele>
        <time>2014-04-12T14:07:15Z</time>
      </trkpt>
      <trkpt lat="43.00082" lon="-0.12795">
        <ele>893.2</ele>
        <time>2014-04-12T14:07:27Z</time>
      </trkpt>
      <trkpt lat="43.00094" lon="-0.12794">
        <ele>896.09</ele>
        <time>2014-04-12T14:07:37Z</time>
      </trkpt>
      <trkpt lat="43.00096" lon="-0.12796">
        <ele>896.09</ele>
        <time>2014-04-12T14:07:39Z</time>
      </trkpt>
      <trkpt lat="43.0011" lon="-0.12804">
        <ele>899.45</ele>
        <time>2014-04-12T14:07:50Z</time>
      </trkpt>
      <trkpt lat="43.00115" lon="-0.12812">
        <ele>901.85</ele>
        <time>2014-04-12T14:07:56Z</time>
      </trkpt>
      <trkpt lat="43.00118" lon="-0.12816">
        <ele>902.33</ele>
        <time>2014-04-12T14:07:59Z</time>
      </trkpt>
      <trkpt lat="43.00119" lon="-0.12822">
        <ele>902.33</ele>
        <time>2014-04-12T14:08:03Z</time>
      </trkpt>
      <trkpt lat="43.00127" lon="-0.12839">
        <ele>904.74</ele>
        <time>2014-04-12T14:08:16Z</time>
      </trkpt>
      <trkpt lat="43.00128" lon="-0.12843">
        <ele>905.7</ele>
        <time>2014-04-12T14:08:18Z</time>
      </trkpt>
      <trkpt lat="43.00128" lon="-0.12847">
        <ele>906.18</ele>
        <time>2014-04-12T14:08:20Z</time>
      </trkpt>
      <trkpt lat="43.00134" lon="-0.12862">
        <ele>907.62</ele>
        <time>2014-04-12T14:08:29Z</time>
      </trkpt>
      <trkpt lat="43.00147" lon="-0.12882">
        <ele>910.03</ele>
        <time>2014-04-12T14:08:42Z</time>
      </trkpt>
      <trkpt lat="43.00151" lon="-0.12884">
        <ele>910.03</ele>
        <time>2014-04-12T14:08:44Z</time>
      </trkpt>
      <trkpt lat="43.00154" lon="-0.1289">
        <ele>910.99</ele>
        <time>2014-04-12T14:08:47Z</time>
      </trkpt>
      <trkpt lat="43.00162" lon="-0.12904">
        <ele>912.91</ele>
        <time>2014-04-12T14:08:56Z</time>
      </trkpt>
      <trkpt lat="43.00168" lon="-0.12907">
        <ele>915.79</ele>
        <time>2014-04-12T14:09:01Z</time>
      </trkpt>
      <trkpt lat="43.00175" lon="-0.12918">
        <ele>916.75</ele>
        <time>2014-04-12T14:09:07Z</time>
      </trkpt>
      <trkpt lat="43.00177" lon="-0.12925">
        <ele>918.2</ele>
        <time>2014-04-12T14:09:12Z</time>
      </trkpt>
      <trkpt lat="43.00182" lon="-0.12934">
        <ele>920.6</ele>
        <time>2014-04-12T14:09:19Z</time>
      </trkpt>
      <trkpt lat="43.00193" lon="-0.12961">
        <ele>922.04</ele>
        <time>2014-04-12T14:09:32Z</time>
      </trkpt>
      <trkpt lat="43.00193" lon="-0.12969">
        <ele>922.52</ele>
        <time>2014-04-12T14:09:36Z</time>
      </trkpt>
      <trkpt lat="43.00194" lon="-0.12972">
        <ele>922.52</ele>
        <time>2014-04-12T14:09:38Z</time>
      </trkpt>
      <trkpt lat="43.00197" lon="-0.1299">
        <ele>923.96</ele>
        <time>2014-04-12T14:09:46Z</time>
      </trkpt>
      <trkpt lat="43.00209" lon="-0.13025">
        <ele>923.48</ele>
        <time>2014-04-12T14:10:00Z</time>
      </trkpt>
      <trkpt lat="43.00211" lon="-0.13027">
        <ele>923.96</ele>
        <time>2014-04-12T14:10:01Z</time>
      </trkpt>
      <trkpt lat="43.00224" lon="-0.13055">
        <ele>924.45</ele>
        <time>2014-04-12T14:10:14Z</time>
      </trkpt>
      <trkpt lat="43.00225" lon="-0.13057">
        <ele>924.45</ele>
        <time>2014-04-12T14:10:15Z</time>
      </trkpt>
      <trkpt lat="43.00227" lon="-0.13064">
        <ele>924.45</ele>
        <time>2014-04-12T14:10:19Z</time>
      </trkpt>
      <trkpt lat="43.0023" lon="-0.13067">
        <ele>924.93</ele>
        <time>2014-04-12T14:10:29Z</time>
      </trkpt>
      <trkpt lat="43.0023" lon="-0.13066">
        <ele>925.41</ele>
        <time>2014-04-12T14:10:40Z</time>
      </trkpt>
      <trkpt lat="43.00228" lon="-0.1307">
        <ele>925.41</ele>
        <time>2014-04-12T14:11:16Z</time>
      </trkpt>
      <trkpt lat="43.00227" lon="-0.13069">
        <ele>925.89</ele>
        <time>2014-04-12T14:11:58Z</time>
      </trkpt>
      <trkpt lat="43.00229" lon="-0.13067">
        <ele>925.89</ele>
        <time>2014-04-12T14:12:33Z</time>
      </trkpt>
      <trkpt lat="43.00229" lon="-0.13069">
        <ele>924.93</ele>
        <time>2014-04-12T14:13:04Z</time>
      </trkpt>
      <trkpt lat="43.00228" lon="-0.1307">
        <ele>925.89</ele>
        <time>2014-04-12T14:13:42Z</time>
      </trkpt>
      <trkpt lat="43.00228" lon="-0.13068">
        <ele>926.85</ele>
        <time>2014-04-12T14:14:17Z</time>
      </trkpt>
      <trkpt lat="43.00228" lon="-0.13068">
        <ele>926.37</ele>
        <time>2014-04-12T14:14:37Z</time>
      </trkpt>
      <trkpt lat="43.00229" lon="-0.13067">
        <ele>926.37</ele>
        <time>2014-04-12T14:15:00Z</time>
      </trkpt>
      <trkpt lat="43.0023" lon="-0.13062">
        <ele>926.85</ele>
        <time>2014-04-12T14:15:09Z</time>
      </trkpt>
      <trkpt lat="43.00232" lon="-0.13059">
        <ele>927.33</ele>
        <time>2014-04-12T14:15:13Z</time>
      </trkpt>
      <trkpt lat="43.00236" lon="-0.13055">
        <ele>928.29</ele>
        <time>2014-04-12T14:15:18Z</time>
      </trkpt>
      <trkpt lat="43.00247" lon="-0.13046">
        <ele>930.69</ele>
        <time>2014-04-12T14:15:29Z</time>
      </trkpt>
      <trkpt lat="43.00251" lon="-0.13041">
        <ele>932.14</ele>
        <time>2014-04-12T14:15:41Z</time>
      </trkpt>
      <trkpt lat="43.00254" lon="-0.13035">
        <ele>932.62</ele>
        <time>2014-04-12T14:15:54Z</time>
      </trkpt>
      <trkpt lat="43.00262" lon="-0.13027">
        <ele>934.54</ele>
        <time>2014-04-12T14:16:03Z</time>
      </trkpt>
      <trkpt lat="43.00263" lon="-0.13025">
        <ele>935.98</ele>
        <time>2014-04-12T14:16:05Z</time>
      </trkpt>
      <trkpt lat="43.00265" lon="-0.13021">
        <ele>936.94</ele>
        <time>2014-04-12T14:16:11Z</time>
      </trkpt>
      <trkpt lat="43.00266" lon="-0.1302">
        <ele>936.94</ele>
        <time>2014-04-12T14:16:12Z</time>
      </trkpt>
      <trkpt lat="43.00276" lon="-0.13008">
        <ele>939.35</ele>
        <time>2014-04-12T14:16:22Z</time>
      </trkpt>
      <trkpt lat="43.00283" lon="-0.12998">
        <ele>941.27</ele>
        <time>2014-04-12T14:16:32Z</time>
      </trkpt>
      <trkpt lat="43.00289" lon="-0.12991">
        <ele>943.67</ele>
        <time>2014-04-12T14:16:41Z</time>
      </trkpt>
      <trkpt lat="43.00289" lon="-0.12993">
        <ele>944.63</ele>
        <time>2014-04-12T14:16:51Z</time>
      </trkpt>
      <trkpt lat="43.0029" lon="-0.12994">
        <ele>944.15</ele>
        <time>2014-04-12T14:17:12Z</time>
      </trkpt>
      <trkpt lat="43.0029" lon="-0.12994">
        <ele>944.15</ele>
        <time>2014-04-12T14:17:13Z</time>
      </trkpt>
      <trkpt lat="43.00292" lon="-0.1299">
        <ele>945.11</ele>
        <time>2014-04-12T14:17:22Z</time>
      </trkpt>
      <trkpt lat="43.00293" lon="-0.1299">
        <ele>945.59</ele>
        <time>2014-04-12T14:17:27Z</time>
      </trkpt>
      <trkpt lat="43.00297" lon="-0.12986">
        <ele>946.07</ele>
        <time>2014-04-12T14:17:39Z</time>
      </trkpt>
      <trkpt lat="43.00299" lon="-0.12984">
        <ele>946.07</ele>
        <time>2014-04-12T14:17:47Z</time>
      </trkpt>
      <trkpt lat="43.00303" lon="-0.12968">
        <ele>948</ele>
        <time>2014-04-12T14:17:55Z</time>
      </trkpt>
      <trkpt lat="43.00306" lon="-0.12958">
        <ele>948.96</ele>
        <time>2014-04-12T14:18:08Z</time>
      </trkpt>
      <trkpt lat="43.00308" lon="-0.12954">
        <ele>948</ele>
        <time>2014-04-12T14:18:24Z</time>
      </trkpt>
      <trkpt lat="43.00311" lon="-0.12951">
        <ele>948.48</ele>
        <time>2014-04-12T14:18:40Z</time>
      </trkpt>
      <trkpt lat="43.00312" lon="-0.12944">
        <ele>948.96</ele>
        <time>2014-04-12T14:18:55Z</time>
      </trkpt>
      <trkpt lat="43.00312" lon="-0.12944">
        <ele>948.96</ele>
        <time>2014-04-12T14:19:28Z</time>
      </trkpt>
      <trkpt lat="43.00312" lon="-0.12944">
        <ele>949.44</ele>
        <time>2014-04-12T14:19:33Z</time>
      </trkpt>
      <trkpt lat="43.00312" lon="-0.12944">
        <ele>949.44</ele>
        <time>2014-04-12T14:19:39Z</time>
      </trkpt>
      <trkpt lat="43.00311" lon="-0.12937">
        <ele>948.96</ele>
        <time>2014-04-12T14:19:45Z</time>
      </trkpt>
      <trkpt lat="43.00313" lon="-0.1293">
        <ele>948.96</ele>
        <time>2014-04-12T14:19:49Z</time>
      </trkpt>
      <trkpt lat="43.00321" lon="-0.12919">
        <ele>951.84</ele>
        <time>2014-04-12T14:19:57Z</time>
      </trkpt>
      <trkpt lat="43.00332" lon="-0.12905">
        <ele>951.36</ele>
        <time>2014-04-12T14:20:05Z</time>
      </trkpt>
      <trkpt lat="43.00341" lon="-0.12888">
        <ele>953.28</ele>
        <time>2014-04-12T14:20:16Z</time>
      </trkpt>
      <trkpt lat="43.00346" lon="-0.12881">
        <ele>955.21</ele>
        <time>2014-04-12T14:20:29Z</time>
      </trkpt>
      <trkpt lat="43.00351" lon="-0.12877">
        <ele>955.21</ele>
        <time>2014-04-12T14:20:42Z</time>
      </trkpt>
      <trkpt lat="43.00356" lon="-0.12873">
        <ele>955.21</ele>
        <time>2014-04-12T14:20:52Z</time>
      </trkpt>
      <trkpt lat="43.00361" lon="-0.12873">
        <ele>956.65</ele>
        <time>2014-04-12T14:20:56Z</time>
      </trkpt>
      <trkpt lat="43.00371" lon="-0.12871">
        <ele>958.57</ele>
        <time>2014-04-12T14:21:07Z</time>
      </trkpt>
      <trkpt lat="43.0037" lon="-0.1287">
        <ele>958.57</ele>
        <time>2014-04-12T14:21:19Z</time>
      </trkpt>
      <trkpt lat="43.00369" lon="-0.1287">
        <ele>957.13</ele>
        <time>2014-04-12T14:21:22Z</time>
      </trkpt>
      <trkpt lat="43.00362" lon="-0.12868">
        <ele>955.69</ele>
        <time>2014-04-12T14:21:34Z</time>
      </trkpt>
      <trkpt lat="43.00362" lon="-0.12869">
        <ele>955.21</ele>
        <time>2014-04-12T14:21:47Z</time>
      </trkpt>
      <trkpt lat="43.0037" lon="-0.12869">
        <ele>957.13</ele>
        <time>2014-04-12T14:21:54Z</time>
      </trkpt>
      <trkpt lat="43.00373" lon="-0.1287">
        <ele>958.57</ele>
        <time>2014-04-12T14:21:57Z</time>
      </trkpt>
      <trkpt lat="43.00375" lon="-0.12868">
        <ele>958.57</ele>
        <time>2014-04-12T14:22:10Z</time>
      </trkpt>
      <trkpt lat="43.00372" lon="-0.1287">
        <ele>957.61</ele>
        <time>2014-04-12T14:22:17Z</time>
      </trkpt>
      <trkpt lat="43.00369" lon="-0.12867">
        <ele>955.69</ele>
        <time>2014-04-12T14:22:21Z</time>
      </trkpt>
      <trkpt lat="43.00362" lon="-0.12869">
        <ele>955.21</ele>
        <time>2014-04-12T14:22:31Z</time>
      </trkpt>
      <trkpt lat="43.00362" lon="-0.12871">
        <ele>955.21</ele>
        <time>2014-04-12T14:22:54Z</time>
      </trkpt>
      <trkpt lat="43.00363" lon="-0.12871">
        <ele>955.21</ele>
        <time>2014-04-12T14:23:05Z</time>
      </trkpt>
      <trkpt lat="43.00366" lon="-0.12871">
        <ele>956.65</ele>
        <time>2014-04-12T14:23:09Z</time>
      </trkpt>
      <trkpt lat="43.00367" lon="-0.12872">
        <ele>958.09</ele>
        <time>2014-04-12T14:23:11Z</time>
      </trkpt>
      <trkpt lat="43.00377" lon="-0.12869">
        <ele>958.57</ele>
        <time>2014-04-12T14:23:20Z</time>
      </trkpt>
      <trkpt lat="43.00379" lon="-0.12868">
        <ele>959.53</ele>
        <time>2014-04-12T14:23:23Z</time>
      </trkpt>
      <trkpt lat="43.00383" lon="-0.12865">
        <ele>959.53</ele>
        <time>2014-04-12T14:23:29Z</time>
      </trkpt>
      <trkpt lat="43.00386" lon="-0.12866">
        <ele>960.98</ele>
        <time>2014-04-12T14:23:33Z</time>
      </trkpt>
      <trkpt lat="43.00392" lon="-0.12867">
        <ele>963.86</ele>
        <time>2014-04-12T14:23:41Z</time>
      </trkpt>
      <trkpt lat="43.00393" lon="-0.12868">
        <ele>964.34</ele>
        <time>2014-04-12T14:23:42Z</time>
      </trkpt>
      <trkpt lat="43.00402" lon="-0.12866">
        <ele>967.22</ele>
        <time>2014-04-12T14:23:49Z</time>
      </trkpt>
      <trkpt lat="43.00406" lon="-0.12867">
        <ele>968.67</ele>
        <time>2014-04-12T14:23:54Z</time>
      </trkpt>
      <trkpt lat="43.00413" lon="-0.12868">
        <ele>969.63</ele>
        <time>2014-04-12T14:23:58Z</time>
      </trkpt>
      <trkpt lat="43.00419" lon="-0.12869">
        <ele>971.07</ele>
        <time>2014-04-12T14:24:02Z</time>
      </trkpt>
      <trkpt lat="43.00435" lon="-0.12877">
        <ele>974.91</ele>
        <time>2014-04-12T14:24:15Z</time>
      </trkpt>
      <trkpt lat="43.00443" lon="-0.12878">
        <ele>976.84</ele>
        <time>2014-04-12T14:24:25Z</time>
      </trkpt>
      <trkpt lat="43.00447" lon="-0.12881">
        <ele>978.28</ele>
        <time>2014-04-12T14:24:30Z</time>
      </trkpt>
      <trkpt lat="43.00454" lon="-0.1288">
        <ele>979.72</ele>
        <time>2014-04-12T14:24:37Z</time>
      </trkpt>
      <trkpt lat="43.00457" lon="-0.12879">
        <ele>980.68</ele>
        <time>2014-04-12T14:24:40Z</time>
      </trkpt>
      <trkpt lat="43.0046" lon="-0.1288">
        <ele>982.12</ele>
        <time>2014-04-12T14:24:43Z</time>
      </trkpt>
      <trkpt lat="43.00466" lon="-0.12881">
        <ele>985.49</ele>
        <time>2014-04-12T14:24:51Z</time>
      </trkpt>
      <trkpt lat="43.00474" lon="-0.12878">
        <ele>987.41</ele>
        <time>2014-04-12T14:25:02Z</time>
      </trkpt>
      <trkpt lat="43.00489" lon="-0.12878">
        <ele>990.3</ele>
        <time>2014-04-12T14:25:14Z</time>
      </trkpt>
      <trkpt lat="43.00491" lon="-0.12877">
        <ele>991.26</ele>
        <time>2014-04-12T14:25:16Z</time>
      </trkpt>
      <trkpt lat="43.00503" lon="-0.12869">
        <ele>995.1</ele>
        <time>2014-04-12T14:25:28Z</time>
      </trkpt>
      <trkpt lat="43.00507" lon="-0.12865">
        <ele>996.06</ele>
        <time>2014-04-12T14:25:33Z</time>
      </trkpt>
      <trkpt lat="43.00518" lon="-0.12858">
        <ele>998.47</ele>
        <time>2014-04-12T14:25:45Z</time>
      </trkpt>
      <trkpt lat="43.00524" lon="-0.12854">
        <ele>1000.87</ele>
        <time>2014-04-12T14:25:54Z</time>
      </trkpt>
      <trkpt lat="43.00526" lon="-0.12852">
        <ele>1002.31</ele>
        <time>2014-04-12T14:25:57Z</time>
      </trkpt>
      <trkpt lat="43.00537" lon="-0.12838">
        <ele>1004.72</ele>
        <time>2014-04-12T14:26:08Z</time>
      </trkpt>
      <trkpt lat="43.00548" lon="-0.12827">
        <ele>1006.16</ele>
        <time>2014-04-12T14:26:20Z</time>
      </trkpt>
      <trkpt lat="43.00552" lon="-0.12824">
        <ele>1007.12</ele>
        <time>2014-04-12T14:26:24Z</time>
      </trkpt>
      <trkpt lat="43.00557" lon="-0.12816">
        <ele>1007.6</ele>
        <time>2014-04-12T14:26:36Z</time>
      </trkpt>
      <trkpt lat="43.00561" lon="-0.12812">
        <ele>1008.56</ele>
        <time>2014-04-12T14:26:42Z</time>
      </trkpt>
      <trkpt lat="43.00567" lon="-0.12814">
        <ele>1009.04</ele>
        <time>2014-04-12T14:26:48Z</time>
      </trkpt>
      <trkpt lat="43.00571" lon="-0.1282">
        <ele>1009.04</ele>
        <time>2014-04-12T14:26:53Z</time>
      </trkpt>
      <trkpt lat="43.00584" lon="-0.12833">
        <ele>1011.44</ele>
        <time>2014-04-12T14:27:02Z</time>
      </trkpt>
      <trkpt lat="43.00586" lon="-0.12834">
        <ele>1011.44</ele>
        <time>2014-04-12T14:27:03Z</time>
      </trkpt>
      <trkpt lat="43.00589" lon="-0.12838">
        <ele>1011.44</ele>
        <time>2014-04-12T14:27:07Z</time>
      </trkpt>
      <trkpt lat="43.006" lon="-0.12842">
        <ele>1012.41</ele>
        <time>2014-04-12T14:27:13Z</time>
      </trkpt>
      <trkpt lat="43.00606" lon="-0.12848">
        <ele>1012.89</ele>
        <time>2014-04-12T14:27:17Z</time>
      </trkpt>
      <trkpt lat="43.0062" lon="-0.12878">
        <ele>1013.85</ele>
        <time>2014-04-12T14:27:30Z</time>
      </trkpt>
      <trkpt lat="43.00631" lon="-0.12906">
        <ele>1014.33</ele>
        <time>2014-04-12T14:27:40Z</time>
      </trkpt>
      <trkpt lat="43.00636" lon="-0.12916">
        <ele>1015.29</ele>
        <time>2014-04-12T14:27:44Z</time>
      </trkpt>
      <trkpt lat="43.0064" lon="-0.12921">
        <ele>1015.77</ele>
        <time>2014-04-12T14:27:48Z</time>
      </trkpt>
      <trkpt lat="43.00653" lon="-0.12942">
        <ele>1014.81</ele>
        <time>2014-04-12T14:27:57Z</time>
      </trkpt>
      <trkpt lat="43.00659" lon="-0.12952">
        <ele>1014.33</ele>
        <time>2014-04-12T14:28:01Z</time>
      </trkpt>
      <trkpt lat="43.00676" lon="-0.12964">
        <ele>1014.33</ele>
        <time>2014-04-12T14:28:10Z</time>
      </trkpt>
      <trkpt lat="43.00699" lon="-0.12975">
        <ele>1012.89</ele>
        <time>2014-04-12T14:28:18Z</time>
      </trkpt>
      <trkpt lat="43.00704" lon="-0.12976">
        <ele>1013.37</ele>
        <time>2014-04-12T14:28:21Z</time>
      </trkpt>
      <trkpt lat="43.00713" lon="-0.12977">
        <ele>1014.33</ele>
        <time>2014-04-12T14:28:33Z</time>
      </trkpt>
      <trkpt lat="43.00715" lon="-0.12982">
        <ele>1014.33</ele>
        <time>2014-04-12T14:29:05Z</time>
      </trkpt>
      <trkpt lat="43.00715" lon="-0.12982">
        <ele>1013.85</ele>
        <time>2014-04-12T14:29:35Z</time>
      </trkpt>
      <trkpt lat="43.00717" lon="-0.12982">
        <ele>1014.33</ele>
        <time>2014-04-12T14:30:07Z</time>
      </trkpt>
      <trkpt lat="43.00716" lon="-0.12984">
        <ele>1013.85</ele>
        <time>2014-04-12T14:30:42Z</time>
      </trkpt>
      <trkpt lat="43.00716" lon="-0.12985">
        <ele>1014.33</ele>
        <time>2014-04-12T14:31:15Z</time>
      </trkpt>
      <trkpt lat="43.00714" lon="-0.12984">
        <ele>1014.81</ele>
        <time>2014-04-12T14:31:48Z</time>
      </trkpt>
      <trkpt lat="43.00714" lon="-0.12984">
        <ele>1014.81</ele>
        <time>2014-04-12T14:32:07Z</time>
      </trkpt>
      <trkpt lat="43.00716" lon="-0.12983">
        <ele>1014.33</ele>
        <time>2014-04-12T14:32:32Z</time>
      </trkpt>
      <trkpt lat="43.0072" lon="-0.12969">
        <ele>1017.21</ele>
        <time>2014-04-12T14:32:41Z</time>
      </trkpt>
      <trkpt lat="43.00723" lon="-0.1296">
        <ele>1020.1</ele>
        <time>2014-04-12T14:32:47Z</time>
      </trkpt>
      <trkpt lat="43.00725" lon="-0.12955">
        <ele>1020.58</ele>
        <time>2014-04-12T14:32:50Z</time>
      </trkpt>
      <trkpt lat="43.00727" lon="-0.12948">
        <ele>1022.02</ele>
        <time>2014-04-12T14:32:54Z</time>
      </trkpt>
      <trkpt lat="43.00729" lon="-0.12936">
        <ele>1024.42</ele>
        <time>2014-04-12T14:33:02Z</time>
      </trkpt>
      <trkpt lat="43.00734" lon="-0.12927">
        <ele>1025.86</ele>
        <time>2014-04-12T14:33:09Z</time>
      </trkpt>
      <trkpt lat="43.00736" lon="-0.12921">
        <ele>1027.31</ele>
        <time>2014-04-12T14:33:13Z</time>
      </trkpt>
      <trkpt lat="43.00737" lon="-0.12916">
        <ele>1028.75</ele>
        <time>2014-04-12T14:33:17Z</time>
      </trkpt>
      <trkpt lat="43.00736" lon="-0.12915">
        <ele>1028.75</ele>
        <time>2014-04-12T14:33:18Z</time>
      </trkpt>
      <trkpt lat="43.00741" lon="-0.12892">
        <ele>1032.11</ele>
        <time>2014-04-12T14:33:34Z</time>
      </trkpt>
      <trkpt lat="43.00742" lon="-0.12888">
        <ele>1032.59</ele>
        <time>2014-04-12T14:33:37Z</time>
      </trkpt>
      <trkpt lat="43.00742" lon="-0.12885">
        <ele>1033.07</ele>
        <time>2014-04-12T14:33:39Z</time>
      </trkpt>
      <trkpt lat="43.00743" lon="-0.12876">
        <ele>1034.52</ele>
        <time>2014-04-12T14:33:44Z</time>
      </trkpt>
      <trkpt lat="43.00745" lon="-0.12866">
        <ele>1036.44</ele>
        <time>2014-04-12T14:33:50Z</time>
      </trkpt>
      <trkpt lat="43.00744" lon="-0.12861">
        <ele>1038.36</ele>
        <time>2014-04-12T14:33:54Z</time>
      </trkpt>
      <trkpt lat="43.00745" lon="-0.12847">
        <ele>1040.76</ele>
        <time>2014-04-12T14:34:05Z</time>
      </trkpt>
      <trkpt lat="43.00745" lon="-0.12839">
        <ele>1041.73</ele>
        <time>2014-04-12T14:34:10Z</time>
      </trkpt>
      <trkpt lat="43.00744" lon="-0.12829">
        <ele>1043.65</ele>
        <time>2014-04-12T14:34:18Z</time>
      </trkpt>
      <trkpt lat="43.00741" lon="-0.12823">
        <ele>1044.13</ele>
        <time>2014-04-12T14:34:22Z</time>
      </trkpt>
      <trkpt lat="43.00737" lon="-0.12807">
        <ele>1047.49</ele>
        <time>2014-04-12T14:34:33Z</time>
      </trkpt>
      <trkpt lat="43.00731" lon="-0.12795">
        <ele>1048.94</ele>
        <time>2014-04-12T14:34:40Z</time>
      </trkpt>
      <trkpt lat="43.00729" lon="-0.1279">
        <ele>1049.42</ele>
        <time>2014-04-12T14:34:42Z</time>
      </trkpt>
      <trkpt lat="43.00723" lon="-0.1277">
        <ele>1052.78</ele>
        <time>2014-04-12T14:34:53Z</time>
      </trkpt>
      <trkpt lat="43.00721" lon="-0.12768">
        <ele>1052.78</ele>
        <time>2014-04-12T14:34:55Z</time>
      </trkpt>
      <trkpt lat="43.00719" lon="-0.12765">
        <ele>1053.26</ele>
        <time>2014-04-12T14:34:57Z</time>
      </trkpt>
      <trkpt lat="43.00716" lon="-0.12751">
        <ele>1055.67</ele>
        <time>2014-04-12T14:35:06Z</time>
      </trkpt>
      <trkpt lat="43.00715" lon="-0.1274">
        <ele>1057.11</ele>
        <time>2014-04-12T14:35:13Z</time>
      </trkpt>
      <trkpt lat="43.00712" lon="-0.12732">
        <ele>1058.07</ele>
        <time>2014-04-12T14:35:18Z</time>
      </trkpt>
      <trkpt lat="43.00709" lon="-0.1272">
        <ele>1059.99</ele>
        <time>2014-04-12T14:35:25Z</time>
      </trkpt>
      <trkpt lat="43.00709" lon="-0.12714">
        <ele>1060.95</ele>
        <time>2014-04-12T14:35:29Z</time>
      </trkpt>
      <trkpt lat="43.00707" lon="-0.12711">
        <ele>1060.95</ele>
        <time>2014-04-12T14:35:31Z</time>
      </trkpt>
      <trkpt lat="43.00703" lon="-0.12701">
        <ele>1061.91</ele>
        <time>2014-04-12T14:35:38Z</time>
      </trkpt>
      <trkpt lat="43.00701" lon="-0.12696">
        <ele>1062.39</ele>
        <time>2014-04-12T14:35:41Z</time>
      </trkpt>
      <trkpt lat="43.00696" lon="-0.12682">
        <ele>1062.87</ele>
        <time>2014-04-12T14:35:48Z</time>
      </trkpt>
      <trkpt lat="43.00689" lon="-0.12644">
        <ele>1062.87</ele>
        <time>2014-04-12T14:36:02Z</time>
      </trkpt>
      <trkpt lat="43.00686" lon="-0.1262">
        <ele>1063.84</ele>
        <time>2014-04-12T14:36:11Z</time>
      </trkpt>
      <trkpt lat="43.00683" lon="-0.12582">
        <ele>1067.2</ele>
        <time>2014-04-12T14:36:27Z</time>
      </trkpt>
      <trkpt lat="43.00684" lon="-0.12565">
        <ele>1069.12</ele>
        <time>2014-04-12T14:36:35Z</time>
      </trkpt>
      <trkpt lat="43.00688" lon="-0.12557">
        <ele>1070.57</ele>
        <time>2014-04-12T14:36:40Z</time>
      </trkpt>
      <trkpt lat="43.00693" lon="-0.12541">
        <ele>1074.41</ele>
        <time>2014-04-12T14:36:52Z</time>
      </trkpt>
      <trkpt lat="43.00698" lon="-0.1252">
        <ele>1077.29</ele>
        <time>2014-04-12T14:37:04Z</time>
      </trkpt>
      <trkpt lat="43.00699" lon="-0.12511">
        <ele>1077.78</ele>
        <time>2014-04-12T14:37:08Z</time>
      </trkpt>
      <trkpt lat="43.00701" lon="-0.1248">
        <ele>1078.26</ele>
        <time>2014-04-12T14:37:22Z</time>
      </trkpt>
      <trkpt lat="43.00701" lon="-0.12471">
        <ele>1078.26</ele>
        <time>2014-04-12T14:37:26Z</time>
      </trkpt>
      <trkpt lat="43.00702" lon="-0.12461">
        <ele>1080.18</ele>
        <time>2014-04-12T14:37:31Z</time>
      </trkpt>
      <trkpt lat="43.00703" lon="-0.1245">
        <ele>1081.62</ele>
        <time>2014-04-12T14:37:36Z</time>
      </trkpt>
      <trkpt lat="43.00703" lon="-0.12447">
        <ele>1082.58</ele>
        <time>2014-04-12T14:37:38Z</time>
      </trkpt>
      <trkpt lat="43.00708" lon="-0.12432">
        <ele>1085.95</ele>
        <time>2014-04-12T14:37:47Z</time>
      </trkpt>
      <trkpt lat="43.00706" lon="-0.12416">
        <ele>1088.35</ele>
        <time>2014-04-12T14:37:56Z</time>
      </trkpt>
      <trkpt lat="43.00704" lon="-0.1241">
        <ele>1090.27</ele>
        <time>2014-04-12T14:38:00Z</time>
      </trkpt>
      <trkpt lat="43.00703" lon="-0.12407">
        <ele>1091.23</ele>
        <time>2014-04-12T14:38:03Z</time>
      </trkpt>
      <trkpt lat="43.00695" lon="-0.12395">
        <ele>1093.16</ele>
        <time>2014-04-12T14:38:15Z</time>
      </trkpt>
      <trkpt lat="43.00702" lon="-0.12392">
        <ele>1093.16</ele>
        <time>2014-04-12T14:38:24Z</time>
      </trkpt>
      <trkpt lat="43.00694" lon="-0.12396">
        <ele>1092.68</ele>
        <time>2014-04-12T14:38:34Z</time>
      </trkpt>
      <trkpt lat="43.00692" lon="-0.12396">
        <ele>1093.64</ele>
        <time>2014-04-12T14:38:45Z</time>
      </trkpt>
      <trkpt lat="43.00693" lon="-0.12397">
        <ele>1093.64</ele>
        <time>2014-04-12T14:39:12Z</time>
      </trkpt>
      <trkpt lat="43.00693" lon="-0.12396">
        <ele>1093.64</ele>
        <time>2014-04-12T14:40:03Z</time>
      </trkpt>
      <trkpt lat="43.00692" lon="-0.12397">
        <ele>1092.68</ele>
        <time>2014-04-12T14:40:44Z</time>
      </trkpt>
      <trkpt lat="43.00692" lon="-0.12397">
        <ele>1092.68</ele>
        <time>2014-04-12T14:41:16Z</time>
      </trkpt>
      <trkpt lat="43.00691" lon="-0.12398">
        <ele>1092.68</ele>
        <time>2014-04-12T14:41:43Z</time>
      </trkpt>
      <trkpt lat="43.00691" lon="-0.12398">
        <ele>1093.64</ele>
        <time>2014-04-12T14:42:19Z</time>
      </trkpt>
      <trkpt lat="43.00691" lon="-0.12397">
        <ele>1094.12</ele>
        <time>2014-04-12T14:42:55Z</time>
      </trkpt>
      <trkpt lat="43.00692" lon="-0.12397">
        <ele>1092.68</ele>
        <time>2014-04-12T14:43:34Z</time>
      </trkpt>
      <trkpt lat="43.00692" lon="-0.12397">
        <ele>1091.71</ele>
        <time>2014-04-12T14:44:10Z</time>
      </trkpt>
      <trkpt lat="43.00692" lon="-0.12397">
        <ele>1092.68</ele>
        <time>2014-04-12T14:44:46Z</time>
      </trkpt>
      <trkpt lat="43.00692" lon="-0.12397">
        <ele>1092.2</ele>
        <time>2014-04-12T14:45:21Z</time>
      </trkpt>
      <trkpt lat="43.00692" lon="-0.12397">
        <ele>1092.2</ele>
        <time>2014-04-12T14:45:56Z</time>
      </trkpt>
      <trkpt lat="43.00692" lon="-0.12397">
        <ele>1091.71</ele>
        <time>2014-04-12T14:46:10Z</time>
      </trkpt>
      <trkpt lat="43.00691" lon="-0.12398">
        <ele>1092.2</ele>
        <time>2014-04-12T14:46:19Z</time>
      </trkpt>
      <trkpt lat="43.00691" lon="-0.12398">
        <ele>1092.2</ele>
        <time>2014-04-12T14:46:44Z</time>
      </trkpt>
      <trkpt lat="43.0069" lon="-0.12399">
        <ele>1091.71</ele>
        <time>2014-04-12T14:47:08Z</time>
      </trkpt>
      <trkpt lat="43.0069" lon="-0.12398">
        <ele>1092.2</ele>
        <time>2014-04-12T14:47:29Z</time>
      </trkpt>
      <trkpt lat="43.00691" lon="-0.12398">
        <ele>1092.68</ele>
        <time>2014-04-12T14:47:43Z</time>
      </trkpt>
      <trkpt lat="43.00689" lon="-0.12397">
        <ele>1092.2</ele>
        <time>2014-04-12T14:47:45Z</time>
      </trkpt>
      <trkpt lat="43.00694" lon="-0.12396">
        <ele>1091.71</ele>
        <time>2014-04-12T14:47:52Z</time>
      </trkpt>
      <trkpt lat="43.00681" lon="-0.12401">
        <ele>1092.68</ele>
        <time>2014-04-12T14:48:01Z</time>
      </trkpt>
      <trkpt lat="43.00669" lon="-0.12405">
        <ele>1090.75</ele>
        <time>2014-04-12T14:48:05Z</time>
      </trkpt>
      <trkpt lat="43.00661" lon="-0.12412">
        <ele>1087.39</ele>
        <time>2014-04-12T14:48:08Z</time>
      </trkpt>
      <trkpt lat="43.00652" lon="-0.12421">
        <ele>1084.02</ele>
        <time>2014-04-12T14:48:11Z</time>
      </trkpt>
      <trkpt lat="43.00645" lon="-0.12424">
        <ele>1080.66</ele>
        <time>2014-04-12T14:48:13Z</time>
      </trkpt>
      <trkpt lat="43.00637" lon="-0.1243">
        <ele>1076.33</ele>
        <time>2014-04-12T14:48:16Z</time>
      </trkpt>
      <trkpt lat="43.00625" lon="-0.12433">
        <ele>1072.49</ele>
        <time>2014-04-12T14:48:20Z</time>
      </trkpt>
      <trkpt lat="43.00616" lon="-0.12433">
        <ele>1068.16</ele>
        <time>2014-04-12T14:48:23Z</time>
      </trkpt>
      <trkpt lat="43.0061" lon="-0.12433">
        <ele>1065.76</ele>
        <time>2014-04-12T14:48:25Z</time>
      </trkpt>
      <trkpt lat="43.00596" lon="-0.12435">
        <ele>1060.95</ele>
        <time>2014-04-12T14:48:28Z</time>
      </trkpt>
      <trkpt lat="43.00581" lon="-0.12438">
        <ele>1060.95</ele>
        <time>2014-04-12T14:48:31Z</time>
      </trkpt>
      <trkpt lat="43.00576" lon="-0.12455">
        <ele>1059.03</ele>
        <time>2014-04-12T14:48:37Z</time>
      </trkpt>
      <trkpt lat="43.00573" lon="-0.12463">
        <ele>1058.07</ele>
        <time>2014-04-12T14:48:39Z</time>
      </trkpt>
      <trkpt lat="43.00575" lon="-0.12493">
        <ele>1054.7</ele>
        <time>2014-04-12T14:48:47Z</time>
      </trkpt>
      <trkpt lat="43.00577" lon="-0.12498">
        <ele>1054.22</ele>
        <time>2014-04-12T14:48:49Z</time>
      </trkpt>
      <trkpt lat="43.0058" lon="-0.12504">
        <ele>1053.74</ele>
        <time>2014-04-12T14:48:51Z</time>
      </trkpt>
      <trkpt lat="43.00584" lon="-0.12515">
        <ele>1051.34</ele>
        <time>2014-04-12T14:48:54Z</time>
      </trkpt>
      <trkpt lat="43.00586" lon="-0.12525">
        <ele>1050.38</ele>
        <time>2014-04-12T14:48:58Z</time>
      </trkpt>
      <trkpt lat="43.00586" lon="-0.12548">
        <ele>1048.45</ele>
        <time>2014-04-12T14:49:08Z</time>
      </trkpt>
      <trkpt lat="43.00585" lon="-0.12551">
        <ele>1047.97</ele>
        <time>2014-04-12T14:49:09Z</time>
      </trkpt>
      <trkpt lat="43.00586" lon="-0.12567">
        <ele>1047.01</ele>
        <time>2014-04-12T14:49:16Z</time>
      </trkpt>
      <trkpt lat="43.00591" lon="-0.12588">
        <ele>1046.53</ele>
        <time>2014-04-12T14:49:26Z</time>
      </trkpt>
      <trkpt lat="43.00596" lon="-0.12601">
        <ele>1046.05</ele>
        <time>2014-04-12T14:49:36Z</time>
      </trkpt>
      <trkpt lat="43.00598" lon="-0.12601">
        <ele>1046.53</ele>
        <time>2014-04-12T14:50:02Z</time>
      </trkpt>
      <trkpt lat="43.00598" lon="-0.12601">
        <ele>1046.53</ele>
        <time>2014-04-12T14:50:04Z</time>
      </trkpt>
      <trkpt lat="43.00601" lon="-0.12608">
        <ele>1045.09</ele>
        <time>2014-04-12T14:50:07Z</time>
      </trkpt>
      <trkpt lat="43.00606" lon="-0.12626">
        <ele>1044.13</ele>
        <time>2014-04-12T14:50:15Z</time>
      </trkpt>
      <trkpt lat="43.00615" lon="-0.12648">
        <ele>1039.8</ele>
        <time>2014-04-12T14:50:22Z</time>
      </trkpt>
      <trkpt lat="43.00606" lon="-0.12672">
        <ele>1035.48</ele>
        <time>2014-04-12T14:50:26Z</time>
      </trkpt>
      <trkpt lat="43.00604" lon="-0.12679">
        <ele>1034.52</ele>
        <time>2014-04-12T14:50:27Z</time>
      </trkpt>
      <trkpt lat="43.0059" lon="-0.12706">
        <ele>1030.19</ele>
        <time>2014-04-12T14:50:33Z</time>
      </trkpt>
      <trkpt lat="43.00582" lon="-0.12719">
        <ele>1026.34</ele>
        <time>2014-04-12T14:50:38Z</time>
      </trkpt>
      <trkpt lat="43.0057" lon="-0.1273">
        <ele>1022.5</ele>
        <time>2014-04-12T14:50:42Z</time>
      </trkpt>
      <trkpt lat="43.00559" lon="-0.12741">
        <ele>1018.17</ele>
        <time>2014-04-12T14:50:46Z</time>
      </trkpt>
      <trkpt lat="43.00552" lon="-0.1275">
        <ele>1014.81</ele>
        <time>2014-04-12T14:50:49Z</time>
      </trkpt>
      <trkpt lat="43.00543" lon="-0.12758">
        <ele>1010.96</ele>
        <time>2014-04-12T14:50:52Z</time>
      </trkpt>
      <trkpt lat="43.00535" lon="-0.12773">
        <ele>1008.08</ele>
        <time>2014-04-12T14:50:56Z</time>
      </trkpt>
      <trkpt lat="43.00525" lon="-0.1278">
        <ele>1003.75</ele>
        <time>2014-04-12T14:50:59Z</time>
      </trkpt>
      <trkpt lat="43.00501" lon="-0.12782">
        <ele>997.99</ele>
        <time>2014-04-12T14:51:04Z</time>
      </trkpt>
      <trkpt lat="43.00486" lon="-0.1278">
        <ele>994.14</ele>
        <time>2014-04-12T14:51:09Z</time>
      </trkpt>
      <trkpt lat="43.0048" lon="-0.12778">
        <ele>990.3</ele>
        <time>2014-04-12T14:51:13Z</time>
      </trkpt>
      <trkpt lat="43.00477" lon="-0.12775">
        <ele>989.33</ele>
        <time>2014-04-12T14:51:15Z</time>
      </trkpt>
      <trkpt lat="43.00466" lon="-0.12765">
        <ele>985.01</ele>
        <time>2014-04-12T14:51:21Z</time>
      </trkpt>
      <trkpt lat="43.00457" lon="-0.12759">
        <ele>980.2</ele>
        <time>2014-04-12T14:51:24Z</time>
      </trkpt>
      <trkpt lat="43.00446" lon="-0.12744">
        <ele>974.43</ele>
        <time>2014-04-12T14:51:28Z</time>
      </trkpt>
      <trkpt lat="43.00444" lon="-0.12742">
        <ele>973.47</ele>
        <time>2014-04-12T14:51:29Z</time>
      </trkpt>
      <trkpt lat="43.00428" lon="-0.12757">
        <ele>967.7</ele>
        <time>2014-04-12T14:51:36Z</time>
      </trkpt>
      <trkpt lat="43.00423" lon="-0.1277">
        <ele>965.78</ele>
        <time>2014-04-12T14:51:39Z</time>
      </trkpt>
      <trkpt lat="43.00413" lon="-0.12792">
        <ele>961.94</ele>
        <time>2014-04-12T14:51:43Z</time>
      </trkpt>
      <trkpt lat="43.00405" lon="-0.12824">
        <ele>958.57</ele>
        <time>2014-04-12T14:51:47Z</time>
      </trkpt>
      <trkpt lat="43.00392" lon="-0.12852">
        <ele>956.65</ele>
        <time>2014-04-12T14:51:52Z</time>
      </trkpt>
      <trkpt lat="43.00388" lon="-0.12855">
        <ele>956.17</ele>
        <time>2014-04-12T14:51:53Z</time>
      </trkpt>
      <trkpt lat="43.00369" lon="-0.12863">
        <ele>953.28</ele>
        <time>2014-04-12T14:51:58Z</time>
      </trkpt>
      <trkpt lat="43.00347" lon="-0.12884">
        <ele>950.4</ele>
        <time>2014-04-12T14:52:08Z</time>
      </trkpt>
      <trkpt lat="43.00342" lon="-0.12891">
        <ele>949.92</ele>
        <time>2014-04-12T14:52:14Z</time>
      </trkpt>
      <trkpt lat="43.00338" lon="-0.12894">
        <ele>948.96</ele>
        <time>2014-04-12T14:52:37Z</time>
      </trkpt>
      <trkpt lat="43.00337" lon="-0.12894">
        <ele>948.96</ele>
        <time>2014-04-12T14:52:40Z</time>
      </trkpt>
      <trkpt lat="43.00328" lon="-0.12878">
        <ele>945.11</ele>
        <time>2014-04-12T14:52:45Z</time>
      </trkpt>
      <trkpt lat="43.00328" lon="-0.12864">
        <ele>941.75</ele>
        <time>2014-04-12T14:52:50Z</time>
      </trkpt>
      <trkpt lat="43.0033" lon="-0.12853">
        <ele>938.86</ele>
        <time>2014-04-12T14:52:53Z</time>
      </trkpt>
      <trkpt lat="43.00328" lon="-0.12823">
        <ele>935.98</ele>
        <time>2014-04-12T14:53:00Z</time>
      </trkpt>
      <trkpt lat="43.00326" lon="-0.12809">
        <ele>932.62</ele>
        <time>2014-04-12T14:53:04Z</time>
      </trkpt>
      <trkpt lat="43.00335" lon="-0.12786">
        <ele>932.14</ele>
        <time>2014-04-12T14:53:12Z</time>
      </trkpt>
      <trkpt lat="43.00336" lon="-0.12783">
        <ele>931.65</ele>
        <time>2014-04-12T14:53:14Z</time>
      </trkpt>
      <trkpt lat="43.00339" lon="-0.12774">
        <ele>928.77</ele>
        <time>2014-04-12T14:53:17Z</time>
      </trkpt>
      <trkpt lat="43.00343" lon="-0.12735">
        <ele>925.89</ele>
        <time>2014-04-12T14:53:23Z</time>
      </trkpt>
      <trkpt lat="43.00339" lon="-0.12705">
        <ele>925.41</ele>
        <time>2014-04-12T14:53:29Z</time>
      </trkpt>
      <trkpt lat="43.00332" lon="-0.12684">
        <ele>921.56</ele>
        <time>2014-04-12T14:53:36Z</time>
      </trkpt>
      <trkpt lat="43.00335" lon="-0.12652">
        <ele>918.68</ele>
        <time>2014-04-12T14:53:44Z</time>
      </trkpt>
      <trkpt lat="43.00335" lon="-0.12644">
        <ele>916.27</ele>
        <time>2014-04-12T14:53:47Z</time>
      </trkpt>
      <trkpt lat="43.0033" lon="-0.12625">
        <ele>912.43</ele>
        <time>2014-04-12T14:53:50Z</time>
      </trkpt>
      <trkpt lat="43.00328" lon="-0.12618">
        <ele>911.95</ele>
        <time>2014-04-12T14:53:51Z</time>
      </trkpt>
      <trkpt lat="43.0031" lon="-0.12595">
        <ele>908.1</ele>
        <time>2014-04-12T14:53:56Z</time>
      </trkpt>
      <trkpt lat="43.00298" lon="-0.12584">
        <ele>903.78</ele>
        <time>2014-04-12T14:53:59Z</time>
      </trkpt>
      <trkpt lat="43.00284" lon="-0.12572">
        <ele>898.01</ele>
        <time>2014-04-12T14:54:03Z</time>
      </trkpt>
      <trkpt lat="43.00279" lon="-0.12568">
        <ele>895.12</ele>
        <time>2014-04-12T14:54:05Z</time>
      </trkpt>
      <trkpt lat="43.00277" lon="-0.12567">
        <ele>894.16</ele>
        <time>2014-04-12T14:54:06Z</time>
      </trkpt>
      <trkpt lat="43.00276" lon="-0.12567">
        <ele>894.16</ele>
        <time>2014-04-12T14:54:07Z</time>
      </trkpt>
      <trkpt lat="43.00274" lon="-0.12561">
        <ele>890.8</ele>
        <time>2014-04-12T14:54:10Z</time>
      </trkpt>
      <trkpt lat="43.00279" lon="-0.12533">
        <ele>885.99</ele>
        <time>2014-04-12T14:54:14Z</time>
      </trkpt>
      <trkpt lat="43.00283" lon="-0.12515">
        <ele>881.19</ele>
        <time>2014-04-12T14:54:17Z</time>
      </trkpt>
      <trkpt lat="43.00287" lon="-0.12497">
        <ele>877.82</ele>
        <time>2014-04-12T14:54:20Z</time>
      </trkpt>
      <trkpt lat="43.00287" lon="-0.12476">
        <ele>874.46</ele>
        <time>2014-04-12T14:54:22Z</time>
      </trkpt>
      <trkpt lat="43.00284" lon="-0.12442">
        <ele>871.09</ele>
        <time>2014-04-12T14:54:26Z</time>
      </trkpt>
      <trkpt lat="43.00283" lon="-0.12436">
        <ele>870.13</ele>
        <time>2014-04-12T14:54:27Z</time>
      </trkpt>
      <trkpt lat="43.00278" lon="-0.12418">
        <ele>868.21</ele>
        <time>2014-04-12T14:54:30Z</time>
      </trkpt>
      <trkpt lat="43.00278" lon="-0.12401">
        <ele>867.25</ele>
        <time>2014-04-12T14:54:34Z</time>
      </trkpt>
      <trkpt lat="43.00278" lon="-0.12394">
        <ele>866.29</ele>
        <time>2014-04-12T14:54:36Z</time>
      </trkpt>
      <trkpt lat="43.00278" lon="-0.12378">
        <ele>865.8</ele>
        <time>2014-04-12T14:54:49Z</time>
      </trkpt>
      <trkpt lat="43.00278" lon="-0.12374">
        <ele>865.8</ele>
        <time>2014-04-12T14:55:14Z</time>
      </trkpt>
      <trkpt lat="43.00275" lon="-0.12367">
        <ele>864.36</ele>
        <time>2014-04-12T14:55:19Z</time>
      </trkpt>
      <trkpt lat="43.00274" lon="-0.12341">
        <ele>860.52</ele>
        <time>2014-04-12T14:55:26Z</time>
      </trkpt>
      <trkpt lat="43.00273" lon="-0.12324">
        <ele>858.59</ele>
        <time>2014-04-12T14:55:29Z</time>
      </trkpt>
      <trkpt lat="43.00274" lon="-0.1231">
        <ele>856.19</ele>
        <time>2014-04-12T14:55:32Z</time>
      </trkpt>
      <trkpt lat="43.00275" lon="-0.12299">
        <ele>854.75</ele>
        <time>2014-04-12T14:55:35Z</time>
      </trkpt>
      <trkpt lat="43.00277" lon="-0.12283">
        <ele>852.83</ele>
        <time>2014-04-12T14:55:38Z</time>
      </trkpt>
      <trkpt lat="43.00277" lon="-0.12274">
        <ele>851.38</ele>
        <time>2014-04-12T14:55:40Z</time>
      </trkpt>
      <trkpt lat="43.00278" lon="-0.12245">
        <ele>847.54</ele>
        <time>2014-04-12T14:55:46Z</time>
      </trkpt>
      <trkpt lat="43.00282" lon="-0.12214">
        <ele>843.21</ele>
        <time>2014-04-12T14:55:51Z</time>
      </trkpt>
      <trkpt lat="43.00283" lon="-0.12198">
        <ele>839.85</ele>
        <time>2014-04-12T14:55:53Z</time>
      </trkpt>
      <trkpt lat="43.00287" lon="-0.1217">
        <ele>836.96</ele>
        <time>2014-04-12T14:55:57Z</time>
      </trkpt>
      <trkpt lat="43.00289" lon="-0.12163">
        <ele>836.48</ele>
        <time>2014-04-12T14:55:59Z</time>
      </trkpt>
      <trkpt lat="43.00296" lon="-0.12152">
        <ele>835.04</ele>
        <time>2014-04-12T14:56:10Z</time>
      </trkpt>
      <trkpt lat="43.00296" lon="-0.12144">
        <ele>835.04</ele>
        <time>2014-04-12T14:56:28Z</time>
      </trkpt>
      <trkpt lat="43.00296" lon="-0.12143">
        <ele>833.6</ele>
        <time>2014-04-12T14:56:34Z</time>
      </trkpt>
      <trkpt lat="43.00301" lon="-0.12133">
        <ele>831.68</ele>
        <time>2014-04-12T14:56:39Z</time>
      </trkpt>
      <trkpt lat="43.00305" lon="-0.12128">
        <ele>829.76</ele>
        <time>2014-04-12T14:56:42Z</time>
      </trkpt>
      <trkpt lat="43.00307" lon="-0.12122">
        <ele>827.83</ele>
        <time>2014-04-12T14:56:44Z</time>
      </trkpt>
      <trkpt lat="43.00309" lon="-0.12103">
        <ele>822.55</ele>
        <time>2014-04-12T14:56:49Z</time>
      </trkpt>
      <trkpt lat="43.00309" lon="-0.12101">
        <ele>820.62</ele>
        <time>2014-04-12T14:56:50Z</time>
      </trkpt>
      <trkpt lat="43.00312" lon="-0.12089">
        <ele>816.3</ele>
        <time>2014-04-12T14:56:53Z</time>
      </trkpt>
      <trkpt lat="43.00309" lon="-0.12077">
        <ele>815.34</ele>
        <time>2014-04-12T14:56:55Z</time>
      </trkpt>
      <trkpt lat="43.00306" lon="-0.12067">
        <ele>813.89</ele>
        <time>2014-04-12T14:56:57Z</time>
      </trkpt>
      <trkpt lat="43.00302" lon="-0.1205">
        <ele>810.05</ele>
        <time>2014-04-12T14:57:01Z</time>
      </trkpt>
      <trkpt lat="43.00303" lon="-0.12034">
        <ele>805.72</ele>
        <time>2014-04-12T14:57:04Z</time>
      </trkpt>
      <trkpt lat="43.00304" lon="-0.1202">
        <ele>801.88</ele>
        <time>2014-04-12T14:57:07Z</time>
      </trkpt>
      <trkpt lat="43.00304" lon="-0.12014">
        <ele>799.95</ele>
        <time>2014-04-12T14:57:09Z</time>
      </trkpt>
      <trkpt lat="43.00298" lon="-0.12026">
        <ele>795.15</ele>
        <time>2014-04-12T14:57:13Z</time>
      </trkpt>
      <trkpt lat="43.00297" lon="-0.12035">
        <ele>794.67</ele>
        <time>2014-04-12T14:57:15Z</time>
      </trkpt>
      <trkpt lat="43.00294" lon="-0.1202">
        <ele>789.86</ele>
        <time>2014-04-12T14:57:19Z</time>
      </trkpt>
      <trkpt lat="43.00287" lon="-0.11998">
        <ele>787.46</ele>
        <time>2014-04-12T14:57:23Z</time>
      </trkpt>
      <trkpt lat="43.00287" lon="-0.1198">
        <ele>783.13</ele>
        <time>2014-04-12T14:57:27Z</time>
      </trkpt>
      <trkpt lat="43.00283" lon="-0.11965">
        <ele>777.36</ele>
        <time>2014-04-12T14:57:30Z</time>
      </trkpt>
      <trkpt lat="43.00279" lon="-0.11957">
        <ele>773.04</ele>
        <time>2014-04-12T14:57:33Z</time>
      </trkpt>
      <trkpt lat="43.00277" lon="-0.11955">
        <ele>771.6</ele>
        <time>2014-04-12T14:57:34Z</time>
      </trkpt>
      <trkpt lat="43.00273" lon="-0.1194">
        <ele>768.23</ele>
        <time>2014-04-12T14:57:37Z</time>
      </trkpt>
      <trkpt lat="43.00273" lon="-0.11906">
        <ele>765.35</ele>
        <time>2014-04-12T14:57:41Z</time>
      </trkpt>
      <trkpt lat="43.00277" lon="-0.11897">
        <ele>763.9</ele>
        <time>2014-04-12T14:57:42Z</time>
      </trkpt>
      <trkpt lat="43.00293" lon="-0.1186">
        <ele>761.02</ele>
        <time>2014-04-12T14:57:46Z</time>
      </trkpt>
      <trkpt lat="43.00298" lon="-0.11839">
        <ele>760.06</ele>
        <time>2014-04-12T14:57:49Z</time>
      </trkpt>
      <trkpt lat="43.00307" lon="-0.11817">
        <ele>759.58</ele>
        <time>2014-04-12T14:57:56Z</time>
      </trkpt>
      <trkpt lat="43.00312" lon="-0.11806">
        <ele>758.62</ele>
        <time>2014-04-12T14:58:18Z</time>
      </trkpt>
      <trkpt lat="43.00317" lon="-0.11788">
        <ele>757.18</ele>
        <time>2014-04-12T14:58:22Z</time>
      </trkpt>
      <trkpt lat="43.00325" lon="-0.11775">
        <ele>755.25</ele>
        <time>2014-04-12T14:58:25Z</time>
      </trkpt>
      <trkpt lat="43.00339" lon="-0.11736">
        <ele>754.29</ele>
        <time>2014-04-12T14:58:34Z</time>
      </trkpt>
      <trkpt lat="43.00341" lon="-0.11729">
        <ele>753.33</ele>
        <time>2014-04-12T14:58:35Z</time>
      </trkpt>
      <trkpt lat="43.0035" lon="-0.11705">
        <ele>750.93</ele>
        <time>2014-04-12T14:58:38Z</time>
      </trkpt>
      <trkpt lat="43.0037" lon="-0.11674">
        <ele>749.97</ele>
        <time>2014-04-12T14:58:43Z</time>
      </trkpt>
      <trkpt lat="43.00383" lon="-0.11637">
        <ele>747.08</ele>
        <time>2014-04-12T14:58:47Z</time>
      </trkpt>
      <trkpt lat="43.00392" lon="-0.11613">
        <ele>748.04</ele>
        <time>2014-04-12T14:58:50Z</time>
      </trkpt>
      <trkpt lat="43.00404" lon="-0.11603">
        <ele>744.2</ele>
        <time>2014-04-12T14:58:53Z</time>
      </trkpt>
      <trkpt lat="43.0041" lon="-0.11601">
        <ele>743.24</ele>
        <time>2014-04-12T14:58:54Z</time>
      </trkpt>
      <trkpt lat="43.0042" lon="-0.11598">
        <ele>742.28</ele>
        <time>2014-04-12T14:58:56Z</time>
      </trkpt>
      <trkpt lat="43.00427" lon="-0.11597">
        <ele>740.35</ele>
        <time>2014-04-12T14:58:58Z</time>
      </trkpt>
      <trkpt lat="43.00447" lon="-0.11592">
        <ele>739.87</ele>
        <time>2014-04-12T14:59:08Z</time>
      </trkpt>
      <trkpt lat="43.00453" lon="-0.11591">
        <ele>736.99</ele>
        <time>2014-04-12T14:59:12Z</time>
      </trkpt>
      <trkpt lat="43.00457" lon="-0.11589">
        <ele>736.51</ele>
        <time>2014-04-12T14:59:13Z</time>
      </trkpt>
      <trkpt lat="43.00466" lon="-0.11587">
        <ele>735.55</ele>
        <time>2014-04-12T14:59:15Z</time>
      </trkpt>
      <trkpt lat="43.00487" lon="-0.11582">
        <ele>731.7</ele>
        <time>2014-04-12T14:59:20Z</time>
      </trkpt>
      <trkpt lat="43.0049" lon="-0.11582">
        <ele>731.7</ele>
        <time>2014-04-12T14:59:21Z</time>
      </trkpt>
      <trkpt lat="43.00507" lon="-0.11586">
        <ele>731.22</ele>
        <time>2014-04-12T14:59:26Z</time>
      </trkpt>
      <trkpt lat="43.00516" lon="-0.11583">
        <ele>728.82</ele>
        <time>2014-04-12T14:59:29Z</time>
      </trkpt>
      <trkpt lat="43.0052" lon="-0.11583">
        <ele>727.37</ele>
        <time>2014-04-12T14:59:30Z</time>
      </trkpt>
      <trkpt lat="43.00529" lon="-0.11584">
        <ele>727.37</ele>
        <time>2014-04-12T14:59:31Z</time>
      </trkpt>
      <trkpt lat="43.00573" lon="-0.11599">
        <ele>724.49</ele>
        <time>2014-04-12T14:59:42Z</time>
      </trkpt>
      <trkpt lat="43.00592" lon="-0.11603">
        <ele>723.05</ele>
        <time>2014-04-12T14:59:48Z</time>
      </trkpt>
      <trkpt lat="43.00593" lon="-0.11599">
        <ele>721.13</ele>
        <time>2014-04-12T14:59:50Z</time>
      </trkpt>
      <trkpt lat="43.00588" lon="-0.11582">
        <ele>717.28</ele>
        <time>2014-04-12T14:59:55Z</time>
      </trkpt>
      <trkpt lat="43.00581" lon="-0.11566">
        <ele>713.92</ele>
        <time>2014-04-12T15:00:00Z</time>
      </trkpt>
      <trkpt lat="43.00579" lon="-0.11558">
        <ele>711.51</ele>
        <time>2014-04-12T15:00:03Z</time>
      </trkpt>
      <trkpt lat="43.00577" lon="-0.11555">
        <ele>710.07</ele>
        <time>2014-04-12T15:00:04Z</time>
      </trkpt>
      <trkpt lat="43.00572" lon="-0.11551">
        <ele>708.15</ele>
        <time>2014-04-12T15:00:06Z</time>
      </trkpt>
      <trkpt lat="43.00553" lon="-0.1154">
        <ele>706.71</ele>
        <time>2014-04-12T15:00:13Z</time>
      </trkpt>
      <trkpt lat="43.00537" lon="-0.11525">
        <ele>702.38</ele>
        <time>2014-04-12T15:00:18Z</time>
      </trkpt>
      <trkpt lat="43.00532" lon="-0.11521">
        <ele>701.42</ele>
        <time>2014-04-12T15:00:19Z</time>
      </trkpt>
      <trkpt lat="43.00526" lon="-0.11515">
        <ele>699.5</ele>
        <time>2014-04-12T15:00:20Z</time>
      </trkpt>
      <trkpt lat="43.00524" lon="-0.11505">
        <ele>696.13</ele>
        <time>2014-04-12T15:00:23Z</time>
      </trkpt>
      <trkpt lat="43.00524" lon="-0.11498">
        <ele>694.69</ele>
        <time>2014-04-12T15:00:24Z</time>
      </trkpt>
      <trkpt lat="43.00528" lon="-0.11485">
        <ele>691.81</ele>
        <time>2014-04-12T15:00:28Z</time>
      </trkpt>
      <trkpt lat="43.00527" lon="-0.11477">
        <ele>690.36</ele>
        <time>2014-04-12T15:00:31Z</time>
      </trkpt>
      <trkpt lat="43.00522" lon="-0.11467">
        <ele>687</ele>
        <time>2014-04-12T15:00:34Z</time>
      </trkpt>
      <trkpt lat="43.00519" lon="-0.11459">
        <ele>684.6</ele>
        <time>2014-04-12T15:00:36Z</time>
      </trkpt>
      <trkpt lat="43.00516" lon="-0.11438">
        <ele>679.79</ele>
        <time>2014-04-12T15:00:39Z</time>
      </trkpt>
      <trkpt lat="43.00515" lon="-0.11432">
        <ele>677.87</ele>
        <time>2014-04-12T15:00:40Z</time>
      </trkpt>
      <trkpt lat="43.00515" lon="-0.11415">
        <ele>674.98</ele>
        <time>2014-04-12T15:00:42Z</time>
      </trkpt>
      <trkpt lat="43.00513" lon="-0.11408">
        <ele>673.54</ele>
        <time>2014-04-12T15:00:43Z</time>
      </trkpt>
      <trkpt lat="43.00513" lon="-0.1139">
        <ele>667.77</ele>
        <time>2014-04-12T15:00:47Z</time>
      </trkpt>
      <trkpt lat="43.00514" lon="-0.11375">
        <ele>664.41</ele>
        <time>2014-04-12T15:00:49Z</time>
      </trkpt>
      <trkpt lat="43.00514" lon="-0.1137">
        <ele>660.56</ele>
        <time>2014-04-12T15:00:51Z</time>
      </trkpt>
      <trkpt lat="43.00498" lon="-0.11362">
        <ele>657.2</ele>
        <time>2014-04-12T15:00:55Z</time>
      </trkpt>
      <trkpt lat="43.00496" lon="-0.1136">
        <ele>656.72</ele>
        <time>2014-04-12T15:00:57Z</time>
      </trkpt>
      <trkpt lat="43.00503" lon="-0.11341">
        <ele>652.87</ele>
        <time>2014-04-12T15:01:02Z</time>
      </trkpt>
      <trkpt lat="43.0051" lon="-0.11332">
        <ele>650.47</ele>
        <time>2014-04-12T15:01:05Z</time>
      </trkpt>
      <trkpt lat="43.00513" lon="-0.11326">
        <ele>649.51</ele>
        <time>2014-04-12T15:01:07Z</time>
      </trkpt>
      <trkpt lat="43.00527" lon="-0.11314">
        <ele>647.1</ele>
        <time>2014-04-12T15:01:11Z</time>
      </trkpt>
      <trkpt lat="43.00531" lon="-0.11303">
        <ele>642.78</ele>
        <time>2014-04-12T15:01:15Z</time>
      </trkpt>
      <trkpt lat="43.00531" lon="-0.11303">
        <ele>642.78</ele>
        <time>2014-04-12T15:01:16Z</time>
      </trkpt>
      <trkpt lat="43.00531" lon="-0.113">
        <ele>641.34</ele>
        <time>2014-04-12T15:01:18Z</time>
      </trkpt>
      <trkpt lat="43.00535" lon="-0.11292">
        <ele>638.45</ele>
        <time>2014-04-12T15:03:23Z</time>
      </trkpt>
      <trkpt lat="43.00535" lon="-0.11291">
        <ele>637.97</ele>
        <time>2014-04-12T15:03:58Z</time>
      </trkpt>
      <trkpt lat="43.00535" lon="-0.11291">
        <ele>638.93</ele>
        <time>2014-04-12T15:04:21Z</time>
      </trkpt>
      <trkpt lat="43.00535" lon="-0.11291">
        <ele>638.93</ele>
        <time>2014-04-12T15:04:33Z</time>
      </trkpt>
      <trkpt lat="43.00556" lon="-0.1127">
        <ele>636.05</ele>
        <time>2014-04-12T15:04:42Z</time>
      </trkpt>
      <trkpt lat="43.0058" lon="-0.11252">
        <ele>633.17</ele>
        <time>2014-04-12T15:04:47Z</time>
      </trkpt>
      <trkpt lat="43.00588" lon="-0.11252">
        <ele>632.68</ele>
        <time>2014-04-12T15:04:48Z</time>
      </trkpt>
      <trkpt lat="43.00622" lon="-0.11255">
        <ele>631.72</ele>
        <time>2014-04-12T15:04:53Z</time>
      </trkpt>
      <trkpt lat="43.00649" lon="-0.11252">
        <ele>631.72</ele>
        <time>2014-04-12T15:04:58Z</time>
      </trkpt>
      <trkpt lat="43.0068" lon="-0.11249">
        <ele>631.72</ele>
        <time>2014-04-12T15:05:04Z</time>
      </trkpt>
      <trkpt lat="43.00728" lon="-0.11236">
        <ele>632.2</ele>
        <time>2014-04-12T15:05:17Z</time>
      </trkpt>
      <trkpt lat="43.00756" lon="-0.11224">
        <ele>634.13</ele>
        <time>2014-04-12T15:05:29Z</time>
      </trkpt>
      <trkpt lat="43.00789" lon="-0.11206">
        <ele>634.61</ele>
        <time>2014-04-12T15:05:41Z</time>
      </trkpt>
      <trkpt lat="43.00823" lon="-0.11202">
        <ele>634.61</ele>
        <time>2014-04-12T15:05:53Z</time>
      </trkpt>
      <trkpt lat="43.00849" lon="-0.11188">
        <ele>632.2</ele>
        <time>2014-04-12T15:05:58Z</time>
      </trkpt>
      <trkpt lat="43.00878" lon="-0.11168">
        <ele>631.72</ele>
        <time>2014-04-12T15:06:04Z</time>
      </trkpt>
      <trkpt lat="43.00894" lon="-0.11158">
        <ele>631.24</ele>
        <time>2014-04-12T15:06:08Z</time>
      </trkpt>
      <trkpt lat="43.00937" lon="-0.11126">
        <ele>632.68</ele>
        <time>2014-04-12T15:06:21Z</time>
      </trkpt>
      <trkpt lat="43.00983" lon="-0.11102">
        <ele>632.2</ele>
        <time>2014-04-12T15:06:34Z</time>
      </trkpt>
      <trkpt lat="43.00991" lon="-0.11098">
        <ele>631.24</ele>
        <time>2014-04-12T15:06:36Z</time>
      </trkpt>
      <trkpt lat="43.01001" lon="-0.11087">
        <ele>630.76</ele>
        <time>2014-04-12T15:06:39Z</time>
      </trkpt>
      <trkpt lat="43.0101" lon="-0.11078">
        <ele>628.84</ele>
        <time>2014-04-12T15:06:41Z</time>
      </trkpt>
      <trkpt lat="43.01035" lon="-0.1107">
        <ele>624.99</ele>
        <time>2014-04-12T15:06:45Z</time>
      </trkpt>
      <trkpt lat="43.01079" lon="-0.11084">
        <ele>619.71</ele>
        <time>2014-04-12T15:06:50Z</time>
      </trkpt>
      <trkpt lat="43.0111" lon="-0.11108">
        <ele>617.78</ele>
        <time>2014-04-12T15:06:54Z</time>
      </trkpt>
      <trkpt lat="43.01137" lon="-0.11111">
        <ele>618.26</ele>
        <time>2014-04-12T15:06:58Z</time>
      </trkpt>
      <trkpt lat="43.0117" lon="-0.11089">
        <ele>615.86</ele>
        <time>2014-04-12T15:07:10Z</time>
      </trkpt>
      <trkpt lat="43.01177" lon="-0.11082">
        <ele>615.86</ele>
        <time>2014-04-12T15:07:12Z</time>
      </trkpt>
      <trkpt lat="43.01213" lon="-0.11058">
        <ele>619.23</ele>
        <time>2014-04-12T15:07:24Z</time>
      </trkpt>
      <trkpt lat="43.01223" lon="-0.11054">
        <ele>620.67</ele>
        <time>2014-04-12T15:07:28Z</time>
      </trkpt>
      <trkpt lat="43.01236" lon="-0.11026">
        <ele>621.15</ele>
        <time>2014-04-12T15:07:36Z</time>
      </trkpt>
      <trkpt lat="43.01245" lon="-0.11014">
        <ele>621.63</ele>
        <time>2014-04-12T15:07:40Z</time>
      </trkpt>
      <trkpt lat="43.01263" lon="-0.10988">
        <ele>619.23</ele>
        <time>2014-04-12T15:07:47Z</time>
      </trkpt>
      <trkpt lat="43.01262" lon="-0.10977">
        <ele>618.75</ele>
        <time>2014-04-12T15:07:49Z</time>
      </trkpt>
      <trkpt lat="43.01271" lon="-0.10948">
        <ele>615.86</ele>
        <time>2014-04-12T15:07:54Z</time>
      </trkpt>
      <trkpt lat="43.0129" lon="-0.10933">
        <ele>616.34</ele>
        <time>2014-04-12T15:07:58Z</time>
      </trkpt>
      <trkpt lat="43.01304" lon="-0.10911">
        <ele>616.34</ele>
        <time>2014-04-12T15:08:02Z</time>
      </trkpt>
      <trkpt lat="43.01313" lon="-0.10884">
        <ele>615.86</ele>
        <time>2014-04-12T15:08:06Z</time>
      </trkpt>
      <trkpt lat="43.01318" lon="-0.10869">
        <ele>614.9</ele>
        <time>2014-04-12T15:08:08Z</time>
      </trkpt>
      <trkpt lat="43.01333" lon="-0.10826">
        <ele>613.46</ele>
        <time>2014-04-12T15:08:13Z</time>
      </trkpt>
      <trkpt lat="43.01338" lon="-0.10753">
        <ele>610.57</ele>
        <time>2014-04-12T15:08:20Z</time>
      </trkpt>
      <trkpt lat="43.0135" lon="-0.10717">
        <ele>609.13</ele>
        <time>2014-04-12T15:08:24Z</time>
      </trkpt>
      <trkpt lat="43.01369" lon="-0.10671">
        <ele>608.65</ele>
        <time>2014-04-12T15:08:30Z</time>
      </trkpt>
      <trkpt lat="43.01378" lon="-0.10654">
        <ele>610.09</ele>
        <time>2014-04-12T15:08:33Z</time>
      </trkpt>
      <trkpt lat="43.01388" lon="-0.10635">
        <ele>611.06</ele>
        <time>2014-04-12T15:08:37Z</time>
      </trkpt>
      <trkpt lat="43.01396" lon="-0.10614">
        <ele>611.06</ele>
        <time>2014-04-12T15:08:41Z</time>
      </trkpt>
      <trkpt lat="43.01401" lon="-0.10605">
        <ele>612.02</ele>
        <time>2014-04-12T15:08:43Z</time>
      </trkpt>
      <trkpt lat="43.01404" lon="-0.106">
        <ele>612.02</ele>
        <time>2014-04-12T15:08:44Z</time>
      </trkpt>
      <trkpt lat="43.01407" lon="-0.10596">
        <ele>612.5</ele>
        <time>2014-04-12T15:08:45Z</time>
      </trkpt>
      <trkpt lat="43.0141" lon="-0.10592">
        <ele>612.5</ele>
        <time>2014-04-12T15:08:46Z</time>
      </trkpt>
      <trkpt lat="43.01413" lon="-0.10589">
        <ele>612.5</ele>
        <time>2014-04-12T15:08:47Z</time>
      </trkpt>
      <trkpt lat="43.01439" lon="-0.10548">
        <ele>613.94</ele>
        <time>2014-04-12T15:08:57Z</time>
      </trkpt>
      <trkpt lat="43.01461" lon="-0.10518">
        <ele>613.46</ele>
        <time>2014-04-12T15:09:03Z</time>
      </trkpt>
      <trkpt lat="43.01465" lon="-0.10513">
        <ele>613.46</ele>
        <time>2014-04-12T15:09:04Z</time>
      </trkpt>
      <trkpt lat="43.01492" lon="-0.10477">
        <ele>611.54</ele>
        <time>2014-04-12T15:09:11Z</time>
      </trkpt>
      <trkpt lat="43.01501" lon="-0.10466">
        <ele>610.09</ele>
        <time>2014-04-12T15:09:13Z</time>
      </trkpt>
      <trkpt lat="43.01506" lon="-0.10439">
        <ele>608.17</ele>
        <time>2014-04-12T15:09:19Z</time>
      </trkpt>
      <trkpt lat="43.0151" lon="-0.10438">
        <ele>607.69</ele>
        <time>2014-04-12T15:09:23Z</time>
      </trkpt>
      <trkpt lat="43.01513" lon="-0.10436">
        <ele>606.73</ele>
        <time>2014-04-12T15:09:26Z</time>
      </trkpt>
      <trkpt lat="43.01521" lon="-0.1042">
        <ele>604.33</ele>
        <time>2014-04-12T15:09:32Z</time>
      </trkpt>
      <trkpt lat="43.01524" lon="-0.1042">
        <ele>604.33</ele>
        <time>2014-04-12T15:09:33Z</time>
      </trkpt>
      <trkpt lat="43.01533" lon="-0.10421">
        <ele>603.85</ele>
        <time>2014-04-12T15:09:48Z</time>
      </trkpt>
      <trkpt lat="43.01533" lon="-0.10418">
        <ele>602.88</ele>
        <time>2014-04-12T15:10:20Z</time>
      </trkpt>
      <trkpt lat="43.01534" lon="-0.10419">
        <ele>604.33</ele>
        <time>2014-04-12T15:10:50Z</time>
      </trkpt>
      <trkpt lat="43.01537" lon="-0.10421">
        <ele>602.4</ele>
        <time>2014-04-12T15:11:25Z</time>
      </trkpt>
      <trkpt lat="43.01539" lon="-0.10418">
        <ele>601.92</ele>
        <time>2014-04-12T15:11:35Z</time>
      </trkpt>
      <trkpt lat="43.01546" lon="-0.10403">
        <ele>597.6</ele>
        <time>2014-04-12T15:11:40Z</time>
      </trkpt>
      <trkpt lat="43.01549" lon="-0.10394">
        <ele>594.23</ele>
        <time>2014-04-12T15:11:42Z</time>
      </trkpt>
      <trkpt lat="43.01551" lon="-0.10384">
        <ele>590.87</ele>
        <time>2014-04-12T15:11:44Z</time>
      </trkpt>
      <trkpt lat="43.01554" lon="-0.10373">
        <ele>587.98</ele>
        <time>2014-04-12T15:11:46Z</time>
      </trkpt>
      <trkpt lat="43.01574" lon="-0.10352">
        <ele>586.54</ele>
        <time>2014-04-12T15:11:53Z</time>
      </trkpt>
      <trkpt lat="43.01584" lon="-0.10352">
        <ele>588.46</ele>
        <time>2014-04-12T15:11:57Z</time>
      </trkpt>
      <trkpt lat="43.01588" lon="-0.10351">
        <ele>588.95</ele>
        <time>2014-04-12T15:11:59Z</time>
      </trkpt>
      <trkpt lat="43.01607" lon="-0.10342">
        <ele>590.87</ele>
        <time>2014-04-12T15:12:10Z</time>
      </trkpt>
      <trkpt lat="43.01626" lon="-0.10333">
        <ele>589.91</ele>
        <time>2014-04-12T15:12:16Z</time>
      </trkpt>
      <trkpt lat="43.01638" lon="-0.10316">
        <ele>588.95</ele>
        <time>2014-04-12T15:12:20Z</time>
      </trkpt>
      <trkpt lat="43.01641" lon="-0.10302">
        <ele>585.58</ele>
        <time>2014-04-12T15:12:24Z</time>
      </trkpt>
      <trkpt lat="43.01641" lon="-0.10299">
        <ele>584.14</ele>
        <time>2014-04-12T15:12:26Z</time>
      </trkpt>
      <trkpt lat="43.01646" lon="-0.10294">
        <ele>581.73</ele>
        <time>2014-04-12T15:12:28Z</time>
      </trkpt>
      <trkpt lat="43.0165" lon="-0.10283">
        <ele>580.29</ele>
        <time>2014-04-12T15:12:29Z</time>
      </trkpt>
      <trkpt lat="43.01651" lon="-0.10277">
        <ele>578.37</ele>
        <time>2014-04-12T15:12:30Z</time>
      </trkpt>
      <trkpt lat="43.01654" lon="-0.10258">
        <ele>578.37</ele>
        <time>2014-04-12T15:12:33Z</time>
      </trkpt>
      <trkpt lat="43.01654" lon="-0.10253">
        <ele>577.89</ele>
        <time>2014-04-12T15:12:34Z</time>
      </trkpt>
      <trkpt lat="43.0166" lon="-0.10245">
        <ele>577.41</ele>
        <time>2014-04-12T15:12:35Z</time>
      </trkpt>
      <trkpt lat="43.01668" lon="-0.10243">
        <ele>577.41</ele>
        <time>2014-04-12T15:12:36Z</time>
      </trkpt>
      <trkpt lat="43.01684" lon="-0.10228">
        <ele>574.53</ele>
        <time>2014-04-12T15:12:41Z</time>
      </trkpt>
      <trkpt lat="43.01686" lon="-0.10224">
        <ele>574.04</ele>
        <time>2014-04-12T15:12:42Z</time>
      </trkpt>
      <trkpt lat="43.01688" lon="-0.1021">
        <ele>571.64</ele>
        <time>2014-04-12T15:12:45Z</time>
      </trkpt>
      <trkpt lat="43.01688" lon="-0.10192">
        <ele>568.76</ele>
        <time>2014-04-12T15:12:50Z</time>
      </trkpt>
      <trkpt lat="43.01695" lon="-0.10183">
        <ele>565.39</ele>
        <time>2014-04-12T15:12:55Z</time>
      </trkpt>
      <trkpt lat="43.01699" lon="-0.10184">
        <ele>564.43</ele>
        <time>2014-04-12T15:12:56Z</time>
      </trkpt>
      <trkpt lat="43.01703" lon="-0.10183">
        <ele>562.03</ele>
        <time>2014-04-12T15:12:58Z</time>
      </trkpt>
      <trkpt lat="43.0171" lon="-0.10176">
        <ele>558.18</ele>
        <time>2014-04-12T15:13:00Z</time>
      </trkpt>
      <trkpt lat="43.01718" lon="-0.10178">
        <ele>556.74</ele>
        <time>2014-04-12T15:13:02Z</time>
      </trkpt>
      <trkpt lat="43.01722" lon="-0.10175">
        <ele>554.82</ele>
        <time>2014-04-12T15:13:04Z</time>
      </trkpt>
      <trkpt lat="43.01723" lon="-0.10167">
        <ele>552.41</ele>
        <time>2014-04-12T15:13:06Z</time>
      </trkpt>
      <trkpt lat="43.01723" lon="-0.10162">
        <ele>550.49</ele>
        <time>2014-04-12T15:13:07Z</time>
      </trkpt>
      <trkpt lat="43.01724" lon="-0.10162">
        <ele>550.01</ele>
        <time>2014-04-12T15:13:08Z</time>
      </trkpt>
      <trkpt lat="43.0173" lon="-0.10154">
        <ele>545.69</ele>
        <time>2014-04-12T15:13:12Z</time>
      </trkpt>
      <trkpt lat="43.01739" lon="-0.10151">
        <ele>541.84</ele>
        <time>2014-04-12T15:13:15Z</time>
      </trkpt>
      <trkpt lat="43.01743" lon="-0.10151">
        <ele>541.36</ele>
        <time>2014-04-12T15:13:16Z</time>
      </trkpt>
      <trkpt lat="43.01745" lon="-0.1015">
        <ele>540.4</ele>
        <time>2014-04-12T15:13:17Z</time>
      </trkpt>
      <trkpt lat="43.01754" lon="-0.1015">
        <ele>537.99</ele>
        <time>2014-04-12T15:13:19Z</time>
      </trkpt>
      <trkpt lat="43.01756" lon="-0.1015">
        <ele>536.55</ele>
        <time>2014-04-12T15:13:20Z</time>
      </trkpt>
      <trkpt lat="43.01763" lon="-0.1015">
        <ele>533.19</ele>
        <time>2014-04-12T15:13:21Z</time>
      </trkpt>
      <trkpt lat="43.01767" lon="-0.1015">
        <ele>530.3</ele>
        <time>2014-04-12T15:13:23Z</time>
      </trkpt>
      <trkpt lat="43.01772" lon="-0.10151">
        <ele>528.86</ele>
        <time>2014-04-12T15:13:24Z</time>
      </trkpt>
      <trkpt lat="43.01836" lon="-0.10124">
        <ele>524.06</ele>
        <time>2014-04-12T15:13:27Z</time>
      </trkpt>
      <trkpt lat="43.0184" lon="-0.10108">
        <ele>522.13</ele>
        <time>2014-04-12T15:13:29Z</time>
      </trkpt>
      <trkpt lat="43.0184" lon="-0.10103">
        <ele>522.13</ele>
        <time>2014-04-12T15:13:31Z</time>
      </trkpt>
      <trkpt lat="43.01833" lon="-0.10103">
        <ele>521.65</ele>
        <time>2014-04-12T15:13:36Z</time>
      </trkpt>
      <trkpt lat="43.0183" lon="-0.10101">
        <ele>521.65</ele>
        <time>2014-04-12T15:13:38Z</time>
      </trkpt>
      <trkpt lat="43.01817" lon="-0.10093">
        <ele>520.69</ele>
        <time>2014-04-12T15:13:44Z</time>
      </trkpt>
      <trkpt lat="43.01793" lon="-0.10083">
        <ele>521.17</ele>
        <time>2014-04-12T15:13:49Z</time>
      </trkpt>
      <trkpt lat="43.01765" lon="-0.10075">
        <ele>519.73</ele>
        <time>2014-04-12T15:13:53Z</time>
      </trkpt>
      <trkpt lat="43.01726" lon="-0.10075">
        <ele>517.81</ele>
        <time>2014-04-12T15:13:58Z</time>
      </trkpt>
      <trkpt lat="43.0171" lon="-0.1007">
        <ele>519.25</ele>
        <time>2014-04-12T15:14:01Z</time>
      </trkpt>
      <trkpt lat="43.01707" lon="-0.10061">
        <ele>521.65</ele>
        <time>2014-04-12T15:14:04Z</time>
      </trkpt>
      <trkpt lat="43.01706" lon="-0.10056">
        <ele>521.65</ele>
        <time>2014-04-12T15:14:06Z</time>
      </trkpt>
      <trkpt lat="43.01702" lon="-0.10045">
        <ele>523.09</ele>
        <time>2014-04-12T15:14:09Z</time>
      </trkpt>
      <trkpt lat="43.01698" lon="-0.10038">
        <ele>524.54</ele>
        <time>2014-04-12T15:14:11Z</time>
      </trkpt>
      <trkpt lat="43.01697" lon="-0.10035">
        <ele>525.5</ele>
        <time>2014-04-12T15:14:12Z</time>
      </trkpt>
      <trkpt lat="43.0169" lon="-0.10012">
        <ele>524.54</ele>
        <time>2014-04-12T15:14:18Z</time>
      </trkpt>
      <trkpt lat="43.01675" lon="-0.09993">
        <ele>523.09</ele>
        <time>2014-04-12T15:14:22Z</time>
      </trkpt>
      <trkpt lat="43.01647" lon="-0.09986">
        <ele>520.69</ele>
        <time>2014-04-12T15:14:27Z</time>
      </trkpt>
      <trkpt lat="43.01625" lon="-0.0999">
        <ele>518.77</ele>
        <time>2014-04-12T15:14:30Z</time>
      </trkpt>
      <trkpt lat="43.01611" lon="-0.09996">
        <ele>518.77</ele>
        <time>2014-04-12T15:14:32Z</time>
      </trkpt>
      <trkpt lat="43.01583" lon="-0.10006">
        <ele>515.88</ele>
        <time>2014-04-12T15:14:36Z</time>
      </trkpt>
      <trkpt lat="43.01569" lon="-0.10011">
        <ele>514.92</ele>
        <time>2014-04-12T15:14:38Z</time>
      </trkpt>
      <trkpt lat="43.01553" lon="-0.10015">
        <ele>512.52</ele>
        <time>2014-04-12T15:14:40Z</time>
      </trkpt>
      <trkpt lat="43.01524" lon="-0.10027">
        <ele>509.64</ele>
        <time>2014-04-12T15:14:44Z</time>
      </trkpt>
      <trkpt lat="43.01491" lon="-0.10055">
        <ele>505.31</ele>
        <time>2014-04-12T15:14:49Z</time>
      </trkpt>
      <trkpt lat="43.01469" lon="-0.10072">
        <ele>502.91</ele>
        <time>2014-04-12T15:14:52Z</time>
      </trkpt>
      <trkpt lat="43.01451" lon="-0.10097">
        <ele>500.98</ele>
        <time>2014-04-12T15:14:55Z</time>
      </trkpt>
      <trkpt lat="43.01391" lon="-0.10139">
        <ele>500.02</ele>
        <time>2014-04-12T15:15:03Z</time>
      </trkpt>
      <trkpt lat="43.0138" lon="-0.10139">
        <ele>501.95</ele>
        <time>2014-04-12T15:15:05Z</time>
      </trkpt>
      <trkpt lat="43.01363" lon="-0.10134">
        <ele>501.95</ele>
        <time>2014-04-12T15:15:08Z</time>
      </trkpt>
      <trkpt lat="43.01331" lon="-0.1013">
        <ele>498.58</ele>
        <time>2014-04-12T15:15:12Z</time>
      </trkpt>
      <trkpt lat="43.01296" lon="-0.10116">
        <ele>497.14</ele>
        <time>2014-04-12T15:15:17Z</time>
      </trkpt>
      <trkpt lat="43.01279" lon="-0.10115">
        <ele>494.74</ele>
        <time>2014-04-12T15:15:18Z</time>
      </trkpt>
      <trkpt lat="43.01268" lon="-0.10116">
        <ele>493.29</ele>
        <time>2014-04-12T15:15:20Z</time>
      </trkpt>
      <trkpt lat="43.01255" lon="-0.1012">
        <ele>492.81</ele>
        <time>2014-04-12T15:15:21Z</time>
      </trkpt>
      <trkpt lat="43.01227" lon="-0.10134">
        <ele>488.49</ele>
        <time>2014-04-12T15:15:25Z</time>
      </trkpt>
      <trkpt lat="43.01202" lon="-0.10136">
        <ele>482.72</ele>
        <time>2014-04-12T15:15:28Z</time>
      </trkpt>
      <trkpt lat="43.01193" lon="-0.10139">
        <ele>481.76</ele>
        <time>2014-04-12T15:15:29Z</time>
      </trkpt>
      <trkpt lat="43.01175" lon="-0.10145">
        <ele>479.35</ele>
        <time>2014-04-12T15:15:31Z</time>
      </trkpt>
      <trkpt lat="43.01166" lon="-0.10146">
        <ele>478.39</ele>
        <time>2014-04-12T15:15:32Z</time>
      </trkpt>
      <trkpt lat="43.0115" lon="-0.10142">
        <ele>475.99</ele>
        <time>2014-04-12T15:15:38Z</time>
      </trkpt>
      <trkpt lat="43.01139" lon="-0.1014">
        <ele>473.59</ele>
        <time>2014-04-12T15:15:41Z</time>
      </trkpt>
      <trkpt lat="43.01123" lon="-0.10139">
        <ele>472.14</ele>
        <time>2014-04-12T15:15:43Z</time>
      </trkpt>
      <trkpt lat="43.01115" lon="-0.10137">
        <ele>471.18</ele>
        <time>2014-04-12T15:15:44Z</time>
      </trkpt>
      <trkpt lat="43.01109" lon="-0.10135">
        <ele>470.7</ele>
        <time>2014-04-12T15:15:45Z</time>
      </trkpt>
      <trkpt lat="43.01102" lon="-0.10131">
        <ele>470.7</ele>
        <time>2014-04-12T15:15:46Z</time>
      </trkpt>
      <trkpt lat="43.01089" lon="-0.10121">
        <ele>470.22</ele>
        <time>2014-04-12T15:15:48Z</time>
      </trkpt>
      <trkpt lat="43.01082" lon="-0.10117">
        <ele>470.22</ele>
        <time>2014-04-12T15:15:49Z</time>
      </trkpt>
      <trkpt lat="43.01073" lon="-0.10117">
        <ele>470.22</ele>
        <time>2014-04-12T15:15:50Z</time>
      </trkpt>
      <trkpt lat="43.01048" lon="-0.10123">
        <ele>471.18</ele>
        <time>2014-04-12T15:15:54Z</time>
      </trkpt>
      <trkpt lat="43.01019" lon="-0.10124">
        <ele>471.18</ele>
        <time>2014-04-12T15:16:00Z</time>
      </trkpt>
      <trkpt lat="43.00991" lon="-0.10112">
        <ele>471.18</ele>
        <time>2014-04-12T15:16:06Z</time>
      </trkpt>
      <trkpt lat="43.0096" lon="-0.10121">
        <ele>472.14</ele>
        <time>2014-04-12T15:16:16Z</time>
      </trkpt>
      <trkpt lat="43.00947" lon="-0.10121">
        <ele>471.18</ele>
        <time>2014-04-12T15:16:22Z</time>
      </trkpt>
      <trkpt lat="43.00941" lon="-0.10118">
        <ele>470.22</ele>
        <time>2014-04-12T15:16:24Z</time>
      </trkpt>
      <trkpt lat="43.0093" lon="-0.10104">
        <ele>467.34</ele>
        <time>2014-04-12T15:16:28Z</time>
      </trkpt>
      <trkpt lat="43.00919" lon="-0.10103">
        <ele>466.38</ele>
        <time>2014-04-12T15:16:35Z</time>
      </trkpt>
      <trkpt lat="43.00919" lon="-0.10106">
        <ele>466.38</ele>
        <time>2014-04-12T15:16:50Z</time>
      </trkpt>
      <trkpt lat="43.009" lon="-0.10126">
        <ele>469.26</ele>
        <time>2014-04-12T15:17:00Z</time>
      </trkpt>
      <trkpt lat="43.00879" lon="-0.1015">
        <ele>472.63</ele>
        <time>2014-04-12T15:17:11Z</time>
      </trkpt>
      <trkpt lat="43.00877" lon="-0.10154">
        <ele>473.11</ele>
        <time>2014-04-12T15:17:13Z</time>
      </trkpt>
      <trkpt lat="43.00869" lon="-0.1016">
        <ele>473.59</ele>
        <time>2014-04-12T15:17:17Z</time>
      </trkpt>
      <trkpt lat="43.0084" lon="-0.10175">
        <ele>476.47</ele>
        <time>2014-04-12T15:17:28Z</time>
      </trkpt>
      <trkpt lat="43.00835" lon="-0.10178">
        <ele>476.47</ele>
        <time>2014-04-12T15:17:30Z</time>
      </trkpt>
      <trkpt lat="43.00825" lon="-0.1018">
        <ele>477.91</ele>
        <time>2014-04-12T15:17:34Z</time>
      </trkpt>
      <trkpt lat="43.00793" lon="-0.10201">
        <ele>478.87</ele>
        <time>2014-04-12T15:17:46Z</time>
      </trkpt>
      <trkpt lat="43.00769" lon="-0.10216">
        <ele>481.28</ele>
        <time>2014-04-12T15:17:55Z</time>
      </trkpt>
      <trkpt lat="43.00733" lon="-0.10247">
        <ele>482.72</ele>
        <time>2014-04-12T15:18:09Z</time>
      </trkpt>
      <trkpt lat="43.00699" lon="-0.10257">
        <ele>484.64</ele>
        <time>2014-04-12T15:18:20Z</time>
      </trkpt>
      <trkpt lat="43.00661" lon="-0.10252">
        <ele>486.56</ele>
        <time>2014-04-12T15:18:32Z</time>
      </trkpt>
      <trkpt lat="43.00655" lon="-0.10243">
        <ele>485.12</ele>
        <time>2014-04-12T15:18:35Z</time>
      </trkpt>
      <trkpt lat="43.00653" lon="-0.1024">
        <ele>484.64</ele>
        <time>2014-04-12T15:18:36Z</time>
      </trkpt>
      <trkpt lat="43.0064" lon="-0.10229">
        <ele>482.72</ele>
        <time>2014-04-12T15:18:40Z</time>
      </trkpt>
      <trkpt lat="43.00633" lon="-0.10214">
        <ele>478.87</ele>
        <time>2014-04-12T15:18:44Z</time>
      </trkpt>
      <trkpt lat="43.00613" lon="-0.10196">
        <ele>476.47</ele>
        <time>2014-04-12T15:18:47Z</time>
      </trkpt>
      <trkpt lat="43.00606" lon="-0.10189">
        <ele>474.55</ele>
        <time>2014-04-12T15:18:48Z</time>
      </trkpt>
      <trkpt lat="43.00588" lon="-0.1018">
        <ele>471.18</ele>
        <time>2014-04-12T15:18:52Z</time>
      </trkpt>
      <trkpt lat="43.00586" lon="-0.10179">
        <ele>471.66</ele>
        <time>2014-04-12T15:18:54Z</time>
      </trkpt>
      <trkpt lat="43.00579" lon="-0.10169">
        <ele>471.18</ele>
        <time>2014-04-12T15:18:59Z</time>
      </trkpt>
      <trkpt lat="43.00539" lon="-0.10163">
        <ele>466.38</ele>
        <time>2014-04-12T15:19:07Z</time>
      </trkpt>
      <trkpt lat="43.0054" lon="-0.1016">
        <ele>464.93</ele>
        <time>2014-04-12T15:19:08Z</time>
      </trkpt>
      <trkpt lat="43.00548" lon="-0.1013">
        <ele>463.49</ele>
        <time>2014-04-12T15:19:16Z</time>
      </trkpt>
      <trkpt lat="43.00551" lon="-0.10123">
        <ele>462.53</ele>
        <time>2014-04-12T15:19:19Z</time>
      </trkpt>
      <trkpt lat="43.00557" lon="-0.10123">
        <ele>462.53</ele>
        <time>2014-04-12T15:19:20Z</time>
      </trkpt>
      <trkpt lat="43.00561" lon="-0.1012">
        <ele>462.53</ele>
        <time>2014-04-12T15:19:21Z</time>
      </trkpt>
      <trkpt lat="43.00561" lon="-0.10115">
        <ele>461.57</ele>
        <time>2014-04-12T15:19:22Z</time>
      </trkpt>
      <trkpt lat="43.00571" lon="-0.10087">
        <ele>462.05</ele>
        <time>2014-04-12T15:19:30Z</time>
      </trkpt>
      <trkpt lat="43.00573" lon="-0.10078">
        <ele>462.05</ele>
        <time>2014-04-12T15:19:32Z</time>
      </trkpt>
      <trkpt lat="43.0058" lon="-0.10045">
        <ele>461.09</ele>
        <time>2014-04-12T15:19:42Z</time>
      </trkpt>
      <trkpt lat="43.00581" lon="-0.10043">
        <ele>461.09</ele>
        <time>2014-04-12T15:19:45Z</time>
      </trkpt>
      <trkpt lat="43.00584" lon="-0.10035">
        <ele>457.72</ele>
        <time>2014-04-12T15:19:49Z</time>
      </trkpt>
      <trkpt lat="43.00582" lon="-0.10017">
        <ele>454.36</ele>
        <time>2014-04-12T15:19:52Z</time>
      </trkpt>
      <trkpt lat="43.00584" lon="-0.1001">
        <ele>453.88</ele>
        <time>2014-04-12T15:19:53Z</time>
      </trkpt>
      <trkpt lat="43.00578" lon="-0.09984">
        <ele>449.07</ele>
        <time>2014-04-12T15:19:57Z</time>
      </trkpt>
      <trkpt lat="43.00573" lon="-0.09971">
        <ele>447.15</ele>
        <time>2014-04-12T15:19:59Z</time>
      </trkpt>
      <trkpt lat="43.00569" lon="-0.09953">
        <ele>445.23</ele>
        <time>2014-04-12T15:20:01Z</time>
      </trkpt>
      <trkpt lat="43.00554" lon="-0.09904">
        <ele>444.27</ele>
        <time>2014-04-12T15:20:07Z</time>
      </trkpt>
      <trkpt lat="43.00548" lon="-0.09889">
        <ele>443.79</ele>
        <time>2014-04-12T15:20:10Z</time>
      </trkpt>
      <trkpt lat="43.00543" lon="-0.09874">
        <ele>443.79</ele>
        <time>2014-04-12T15:20:15Z</time>
      </trkpt>
      <trkpt lat="43.00532" lon="-0.09837">
        <ele>442.82</ele>
        <time>2014-04-12T15:20:25Z</time>
      </trkpt>
      <trkpt lat="43.0053" lon="-0.09815">
        <ele>442.82</ele>
        <time>2014-04-12T15:20:30Z</time>
      </trkpt>
      <trkpt lat="43.00533" lon="-0.09803">
        <ele>442.82</ele>
        <time>2014-04-12T15:20:35Z</time>
      </trkpt>
      <trkpt lat="43.00542" lon="-0.09773">
        <ele>442.34</ele>
        <time>2014-04-12T15:20:45Z</time>
      </trkpt>
      <trkpt lat="43.00546" lon="-0.09757">
        <ele>441.38</ele>
        <time>2014-04-12T15:20:48Z</time>
      </trkpt>
      <trkpt lat="43.00549" lon="-0.09739">
        <ele>440.9</ele>
        <time>2014-04-12T15:20:51Z</time>
      </trkpt>
      <trkpt lat="43.00558" lon="-0.09693">
        <ele>439.94</ele>
        <time>2014-04-12T15:20:58Z</time>
      </trkpt>
      <trkpt lat="43.00577" lon="-0.0964">
        <ele>438.02</ele>
        <time>2014-04-12T15:21:06Z</time>
      </trkpt>
      <trkpt lat="43.00582" lon="-0.09598">
        <ele>437.54</ele>
        <time>2014-04-12T15:21:13Z</time>
      </trkpt>
      <trkpt lat="43.00587" lon="-0.09583">
        <ele>437.06</ele>
        <time>2014-04-12T15:21:16Z</time>
      </trkpt>
      <trkpt lat="43.00603" lon="-0.09564">
        <ele>436.58</ele>
        <time>2014-04-12T15:21:22Z</time>
      </trkpt>
      <trkpt lat="43.00608" lon="-0.09557">
        <ele>435.61</ele>
        <time>2014-04-12T15:21:31Z</time>
      </trkpt>
      <trkpt lat="43.0061" lon="-0.09554">
        <ele>436.1</ele>
        <time>2014-04-12T15:21:59Z</time>
      </trkpt>
      <trkpt lat="43.00611" lon="-0.09554">
        <ele>436.1</ele>
        <time>2014-04-12T15:22:33Z</time>
      </trkpt>
      <trkpt lat="43.00614" lon="-0.09555">
        <ele>435.61</ele>
        <time>2014-04-12T15:23:10Z</time>
      </trkpt>
      <trkpt lat="43.00612" lon="-0.09555">
        <ele>435.61</ele>
        <time>2014-04-12T15:23:32Z</time>
      </trkpt>
      <trkpt lat="43.00613" lon="-0.09556">
        <ele>436.58</ele>
        <time>2014-04-12T15:23:44Z</time>
      </trkpt>
      <trkpt lat="43.00612" lon="-0.09557">
        <ele>436.1</ele>
        <time>2014-04-12T15:24:10Z</time>
      </trkpt>
      <trkpt lat="43.00612" lon="-0.09558">
        <ele>436.1</ele>
        <time>2014-04-12T15:24:27Z</time>
      </trkpt>
    </trkseg>
  </trk>
</gpx>